<?xml version="1.0" encoding="UTF-8" standalone="no" ?>
<gpx xmlns="http://www.topografix.com/GPX/1/1" xmlns:xsi="http://www.w3.org/2001/XMLSchema-instance" xsi:schemaLocation="http://www.topografix.com/GPX/1/1 http://www.topografix.com/GPX/1/1/gpx.xsd" version="1.1" creator="VisuGPX - https://www.visugpx.com">
  <metadata>
    <name>2021-04-22 depuis Fellering</name>
  </metadata>
  <trk>
    <name><![CDATA[2021-04-22 depuis Fellering]]></name>
    <extensions>
      <line xmlns="http://www.topografix.com/GPX/gpx_style/0/2">
        <color>0000FF</color>
        <opacity>0.59</opacity>
        <width>6.0</width>
      </line>
    </extensions>
    <trkseg>
      <trkpt lat="47.9001" lon="6.97059">
        <ele>521.6</ele>
        <time>2021-04-22T12:59:49.000Z</time>
      </trkpt>
      <trkpt lat="47.90007" lon="6.97045">
        <ele>522.3</ele>
        <time>2021-04-22T12:59:59.000Z</time>
      </trkpt>
      <trkpt lat="47.90001" lon="6.97035">
        <ele>521.1</ele>
        <time>2021-04-22T13:00:19.000Z</time>
      </trkpt>
      <trkpt lat="47.89996" lon="6.97023">
        <ele>521.6</ele>
        <time>2021-04-22T13:00:31.000Z</time>
      </trkpt>
      <trkpt lat="47.89993" lon="6.9701">
        <ele>522.8</ele>
        <time>2021-04-22T13:00:39.000Z</time>
      </trkpt>
      <trkpt lat="47.89987" lon="6.96997">
        <ele>523.2</ele>
        <time>2021-04-22T13:00:46.000Z</time>
      </trkpt>
      <trkpt lat="47.89996" lon="6.9699">
        <ele>524.8</ele>
        <time>2021-04-22T13:01:00.000Z</time>
      </trkpt>
      <trkpt lat="47.90004" lon="6.96996">
        <ele>526.3</ele>
        <time>2021-04-22T13:01:07.000Z</time>
      </trkpt>
      <trkpt lat="47.90011" lon="6.97005">
        <ele>528.1</ele>
        <time>2021-04-22T13:01:18.000Z</time>
      </trkpt>
      <trkpt lat="47.90019" lon="6.97012">
        <ele>529.8</ele>
        <time>2021-04-22T13:01:28.000Z</time>
      </trkpt>
      <trkpt lat="47.90028" lon="6.97011">
        <ele>533</ele>
        <time>2021-04-22T13:01:39.000Z</time>
      </trkpt>
      <trkpt lat="47.90032" lon="6.96999">
        <ele>535.4</ele>
        <time>2021-04-22T13:01:48.000Z</time>
      </trkpt>
      <trkpt lat="47.90035" lon="6.96986">
        <ele>536.5</ele>
        <time>2021-04-22T13:01:57.000Z</time>
      </trkpt>
      <trkpt lat="47.90039" lon="6.96974">
        <ele>537.8</ele>
        <time>2021-04-22T13:02:05.000Z</time>
      </trkpt>
      <trkpt lat="47.90046" lon="6.96963">
        <ele>539.6</ele>
        <time>2021-04-22T13:02:14.000Z</time>
      </trkpt>
      <trkpt lat="47.90052" lon="6.96954">
        <ele>541.4</ele>
        <time>2021-04-22T13:02:22.000Z</time>
      </trkpt>
      <trkpt lat="47.9006" lon="6.96945">
        <ele>543.2</ele>
        <time>2021-04-22T13:02:31.000Z</time>
      </trkpt>
      <trkpt lat="47.90065" lon="6.96934">
        <ele>544.2</ele>
        <time>2021-04-22T13:02:38.000Z</time>
      </trkpt>
      <trkpt lat="47.90071" lon="6.96923">
        <ele>545.3</ele>
        <time>2021-04-22T13:02:45.000Z</time>
      </trkpt>
      <trkpt lat="47.90077" lon="6.96911">
        <ele>546.6</ele>
        <time>2021-04-22T13:02:53.000Z</time>
      </trkpt>
      <trkpt lat="47.90081" lon="6.96899">
        <ele>547.6</ele>
        <time>2021-04-22T13:03:03.000Z</time>
      </trkpt>
      <trkpt lat="47.90086" lon="6.96887">
        <ele>549</ele>
        <time>2021-04-22T13:03:11.000Z</time>
      </trkpt>
      <trkpt lat="47.90089" lon="6.96873">
        <ele>550.1</ele>
        <time>2021-04-22T13:03:18.000Z</time>
      </trkpt>
      <trkpt lat="47.90092" lon="6.96859">
        <ele>551</ele>
        <time>2021-04-22T13:03:27.000Z</time>
      </trkpt>
      <trkpt lat="47.90094" lon="6.96844">
        <ele>551.5</ele>
        <time>2021-04-22T13:03:35.000Z</time>
      </trkpt>
      <trkpt lat="47.90092" lon="6.9683">
        <ele>551.5</ele>
        <time>2021-04-22T13:03:43.000Z</time>
      </trkpt>
      <trkpt lat="47.90087" lon="6.96818">
        <ele>551.4</ele>
        <time>2021-04-22T13:03:51.000Z</time>
      </trkpt>
      <trkpt lat="47.90081" lon="6.96808">
        <ele>551.5</ele>
        <time>2021-04-22T13:04:00.000Z</time>
      </trkpt>
      <trkpt lat="47.90074" lon="6.96798">
        <ele>552.5</ele>
        <time>2021-04-22T13:04:13.000Z</time>
      </trkpt>
      <trkpt lat="47.90068" lon="6.96788">
        <ele>553.7</ele>
        <time>2021-04-22T13:04:23.000Z</time>
      </trkpt>
      <trkpt lat="47.90066" lon="6.96774">
        <ele>555.7</ele>
        <time>2021-04-22T13:04:34.000Z</time>
      </trkpt>
      <trkpt lat="47.90073" lon="6.96764">
        <ele>557.5</ele>
        <time>2021-04-22T13:04:45.000Z</time>
      </trkpt>
      <trkpt lat="47.90082" lon="6.96759">
        <ele>558.7</ele>
        <time>2021-04-22T13:04:56.000Z</time>
      </trkpt>
      <trkpt lat="47.90091" lon="6.96756">
        <ele>560.9</ele>
        <time>2021-04-22T13:05:07.000Z</time>
      </trkpt>
      <trkpt lat="47.901" lon="6.96756">
        <ele>563</ele>
        <time>2021-04-22T13:05:17.000Z</time>
      </trkpt>
      <trkpt lat="47.90109" lon="6.96758">
        <ele>564.8</ele>
        <time>2021-04-22T13:05:30.000Z</time>
      </trkpt>
      <trkpt lat="47.90119" lon="6.96756">
        <ele>567.1</ele>
        <time>2021-04-22T13:05:43.000Z</time>
      </trkpt>
      <trkpt lat="47.90128" lon="6.96754">
        <ele>569.2</ele>
        <time>2021-04-22T13:05:53.000Z</time>
      </trkpt>
      <trkpt lat="47.90136" lon="6.96748">
        <ele>571.8</ele>
        <time>2021-04-22T13:06:04.000Z</time>
      </trkpt>
      <trkpt lat="47.90141" lon="6.96736">
        <ele>575.5</ele>
        <time>2021-04-22T13:06:13.000Z</time>
      </trkpt>
      <trkpt lat="47.90141" lon="6.96722">
        <ele>578.7</ele>
        <time>2021-04-22T13:06:24.000Z</time>
      </trkpt>
      <trkpt lat="47.90134" lon="6.96712">
        <ele>579.3</ele>
        <time>2021-04-22T13:06:31.000Z</time>
      </trkpt>
      <trkpt lat="47.90127" lon="6.96702">
        <ele>580.1</ele>
        <time>2021-04-22T13:06:38.000Z</time>
      </trkpt>
      <trkpt lat="47.9012" lon="6.96692">
        <ele>580.9</ele>
        <time>2021-04-22T13:06:48.000Z</time>
      </trkpt>
      <trkpt lat="47.90114" lon="6.96681">
        <ele>582.3</ele>
        <time>2021-04-22T13:06:58.000Z</time>
      </trkpt>
      <trkpt lat="47.90105" lon="6.96675">
        <ele>582</ele>
        <time>2021-04-22T13:07:05.000Z</time>
      </trkpt>
      <trkpt lat="47.90098" lon="6.96667">
        <ele>582.6</ele>
        <time>2021-04-22T13:07:16.000Z</time>
      </trkpt>
      <trkpt lat="47.9009" lon="6.96658">
        <ele>583.7</ele>
        <time>2021-04-22T13:07:27.000Z</time>
      </trkpt>
      <trkpt lat="47.90083" lon="6.96648">
        <ele>584.9</ele>
        <time>2021-04-22T13:07:34.000Z</time>
      </trkpt>
      <trkpt lat="47.90076" lon="6.96639">
        <ele>586.5</ele>
        <time>2021-04-22T13:07:43.000Z</time>
      </trkpt>
      <trkpt lat="47.9007" lon="6.96629">
        <ele>588.4</ele>
        <time>2021-04-22T13:07:52.000Z</time>
      </trkpt>
      <trkpt lat="47.90063" lon="6.96619">
        <ele>590.2</ele>
        <time>2021-04-22T13:08:01.000Z</time>
      </trkpt>
      <trkpt lat="47.90056" lon="6.96609">
        <ele>591.5</ele>
        <time>2021-04-22T13:08:09.000Z</time>
      </trkpt>
      <trkpt lat="47.90049" lon="6.96601">
        <ele>592.5</ele>
        <time>2021-04-22T13:08:17.000Z</time>
      </trkpt>
      <trkpt lat="47.90041" lon="6.96593">
        <ele>593.3</ele>
        <time>2021-04-22T13:08:25.000Z</time>
      </trkpt>
      <trkpt lat="47.90033" lon="6.96585">
        <ele>593.8</ele>
        <time>2021-04-22T13:08:34.000Z</time>
      </trkpt>
      <trkpt lat="47.90023" lon="6.96581">
        <ele>593.1</ele>
        <time>2021-04-22T13:08:42.000Z</time>
      </trkpt>
      <trkpt lat="47.90014" lon="6.96579">
        <ele>592</ele>
        <time>2021-04-22T13:08:49.000Z</time>
      </trkpt>
      <trkpt lat="47.90005" lon="6.96575">
        <ele>591.3</ele>
        <time>2021-04-22T13:08:56.000Z</time>
      </trkpt>
      <trkpt lat="47.89996" lon="6.9657">
        <ele>590.8</ele>
        <time>2021-04-22T13:09:03.000Z</time>
      </trkpt>
      <trkpt lat="47.89987" lon="6.96565">
        <ele>590.5</ele>
        <time>2021-04-22T13:09:11.000Z</time>
      </trkpt>
      <trkpt lat="47.89979" lon="6.96558">
        <ele>590.4</ele>
        <time>2021-04-22T13:09:18.000Z</time>
      </trkpt>
      <trkpt lat="47.8997" lon="6.96551">
        <ele>590.3</ele>
        <time>2021-04-22T13:09:26.000Z</time>
      </trkpt>
      <trkpt lat="47.89962" lon="6.96544">
        <ele>590.1</ele>
        <time>2021-04-22T13:09:33.000Z</time>
      </trkpt>
      <trkpt lat="47.89953" lon="6.96538">
        <ele>589.7</ele>
        <time>2021-04-22T13:09:40.000Z</time>
      </trkpt>
      <trkpt lat="47.89945" lon="6.96531">
        <ele>589.5</ele>
        <time>2021-04-22T13:09:47.000Z</time>
      </trkpt>
      <trkpt lat="47.8994" lon="6.96516">
        <ele>590.8</ele>
        <time>2021-04-22T13:09:55.000Z</time>
      </trkpt>
      <trkpt lat="47.89935" lon="6.96505">
        <ele>591.7</ele>
        <time>2021-04-22T13:10:03.000Z</time>
      </trkpt>
      <trkpt lat="47.89928" lon="6.96495">
        <ele>591.7</ele>
        <time>2021-04-22T13:10:10.000Z</time>
      </trkpt>
      <trkpt lat="47.8992" lon="6.96488">
        <ele>591</ele>
        <time>2021-04-22T13:10:17.000Z</time>
      </trkpt>
      <trkpt lat="47.89911" lon="6.96479">
        <ele>590.6</ele>
        <time>2021-04-22T13:10:23.000Z</time>
      </trkpt>
      <trkpt lat="47.89904" lon="6.96469">
        <ele>590.3</ele>
        <time>2021-04-22T13:10:31.000Z</time>
      </trkpt>
      <trkpt lat="47.89898" lon="6.96459">
        <ele>590.3</ele>
        <time>2021-04-22T13:10:37.000Z</time>
      </trkpt>
      <trkpt lat="47.8989" lon="6.96452">
        <ele>589.4</ele>
        <time>2021-04-22T13:10:44.000Z</time>
      </trkpt>
      <trkpt lat="47.89882" lon="6.96443">
        <ele>588.8</ele>
        <time>2021-04-22T13:10:52.000Z</time>
      </trkpt>
      <trkpt lat="47.89879" lon="6.96429">
        <ele>589.2</ele>
        <time>2021-04-22T13:10:58.000Z</time>
      </trkpt>
      <trkpt lat="47.89875" lon="6.96415">
        <ele>589.5</ele>
        <time>2021-04-22T13:11:06.000Z</time>
      </trkpt>
      <trkpt lat="47.89874" lon="6.964">
        <ele>589</ele>
        <time>2021-04-22T13:11:14.000Z</time>
      </trkpt>
      <trkpt lat="47.89871" lon="6.96386">
        <ele>588.4</ele>
        <time>2021-04-22T13:11:22.000Z</time>
      </trkpt>
      <trkpt lat="47.89872" lon="6.96371">
        <ele>588.3</ele>
        <time>2021-04-22T13:11:31.000Z</time>
      </trkpt>
      <trkpt lat="47.89873" lon="6.96355">
        <ele>588.6</ele>
        <time>2021-04-22T13:11:40.000Z</time>
      </trkpt>
      <trkpt lat="47.89872" lon="6.96342">
        <ele>588.1</ele>
        <time>2021-04-22T13:11:47.000Z</time>
      </trkpt>
      <trkpt lat="47.89872" lon="6.96327">
        <ele>588</ele>
        <time>2021-04-22T13:11:54.000Z</time>
      </trkpt>
      <trkpt lat="47.8987" lon="6.96313">
        <ele>587.8</ele>
        <time>2021-04-22T13:12:00.000Z</time>
      </trkpt>
      <trkpt lat="47.89873" lon="6.96298">
        <ele>588.7</ele>
        <time>2021-04-22T13:12:09.000Z</time>
      </trkpt>
      <trkpt lat="47.89875" lon="6.96284">
        <ele>589.3</ele>
        <time>2021-04-22T13:12:16.000Z</time>
      </trkpt>
      <trkpt lat="47.89878" lon="6.96269">
        <ele>590.3</ele>
        <time>2021-04-22T13:12:23.000Z</time>
      </trkpt>
      <trkpt lat="47.89881" lon="6.96255">
        <ele>591.4</ele>
        <time>2021-04-22T13:12:31.000Z</time>
      </trkpt>
      <trkpt lat="47.8989" lon="6.96249">
        <ele>593.9</ele>
        <time>2021-04-22T13:12:39.000Z</time>
      </trkpt>
      <trkpt lat="47.89896" lon="6.96239">
        <ele>595.6</ele>
        <time>2021-04-22T13:12:45.000Z</time>
      </trkpt>
      <trkpt lat="47.89902" lon="6.96227">
        <ele>597.2</ele>
        <time>2021-04-22T13:12:53.000Z</time>
      </trkpt>
      <trkpt lat="47.89907" lon="6.96215">
        <ele>598.4</ele>
        <time>2021-04-22T13:13:05.000Z</time>
      </trkpt>
      <trkpt lat="47.89909" lon="6.962">
        <ele>598.5</ele>
        <time>2021-04-22T13:13:13.000Z</time>
      </trkpt>
      <trkpt lat="47.89911" lon="6.96187">
        <ele>598.6</ele>
        <time>2021-04-22T13:13:18.000Z</time>
      </trkpt>
      <trkpt lat="47.89912" lon="6.96173">
        <ele>598.4</ele>
        <time>2021-04-22T13:13:24.000Z</time>
      </trkpt>
      <trkpt lat="47.89912" lon="6.9616">
        <ele>598.7</ele>
        <time>2021-04-22T13:13:30.000Z</time>
      </trkpt>
      <trkpt lat="47.8991" lon="6.96146">
        <ele>599.6</ele>
        <time>2021-04-22T13:13:40.000Z</time>
      </trkpt>
      <trkpt lat="47.89905" lon="6.96134">
        <ele>600</ele>
        <time>2021-04-22T13:13:49.000Z</time>
      </trkpt>
      <trkpt lat="47.89902" lon="6.9612">
        <ele>600.8</ele>
        <time>2021-04-22T13:13:56.000Z</time>
      </trkpt>
      <trkpt lat="47.89898" lon="6.96108">
        <ele>601.2</ele>
        <time>2021-04-22T13:14:04.000Z</time>
      </trkpt>
      <trkpt lat="47.89895" lon="6.96093">
        <ele>602.3</ele>
        <time>2021-04-22T13:14:11.000Z</time>
      </trkpt>
      <trkpt lat="47.89892" lon="6.9608">
        <ele>603.2</ele>
        <time>2021-04-22T13:14:19.000Z</time>
      </trkpt>
      <trkpt lat="47.89888" lon="6.96068">
        <ele>604.3</ele>
        <time>2021-04-22T13:14:28.000Z</time>
      </trkpt>
      <trkpt lat="47.89885" lon="6.96055">
        <ele>605.5</ele>
        <time>2021-04-22T13:14:36.000Z</time>
      </trkpt>
      <trkpt lat="47.89883" lon="6.9604">
        <ele>607.3</ele>
        <time>2021-04-22T13:14:43.000Z</time>
      </trkpt>
      <trkpt lat="47.8988" lon="6.96027">
        <ele>608.6</ele>
        <time>2021-04-22T13:14:51.000Z</time>
      </trkpt>
      <trkpt lat="47.89876" lon="6.96013">
        <ele>610</ele>
        <time>2021-04-22T13:14:58.000Z</time>
      </trkpt>
      <trkpt lat="47.89873" lon="6.95999">
        <ele>611.4</ele>
        <time>2021-04-22T13:15:07.000Z</time>
      </trkpt>
      <trkpt lat="47.89869" lon="6.95986">
        <ele>612.4</ele>
        <time>2021-04-22T13:15:15.000Z</time>
      </trkpt>
      <trkpt lat="47.89861" lon="6.95979">
        <ele>612.1</ele>
        <time>2021-04-22T13:15:22.000Z</time>
      </trkpt>
      <trkpt lat="47.89852" lon="6.95974">
        <ele>611.6</ele>
        <time>2021-04-22T13:15:29.000Z</time>
      </trkpt>
      <trkpt lat="47.89843" lon="6.9597">
        <ele>610.9</ele>
        <time>2021-04-22T13:15:36.000Z</time>
      </trkpt>
      <trkpt lat="47.89834" lon="6.95965">
        <ele>610.3</ele>
        <time>2021-04-22T13:15:45.000Z</time>
      </trkpt>
      <trkpt lat="47.89825" lon="6.9596">
        <ele>609.7</ele>
        <time>2021-04-22T13:15:53.000Z</time>
      </trkpt>
      <trkpt lat="47.89816" lon="6.95956">
        <ele>609</ele>
        <time>2021-04-22T13:16:00.000Z</time>
      </trkpt>
      <trkpt lat="47.89808" lon="6.95948">
        <ele>608.8</ele>
        <time>2021-04-22T13:16:08.000Z</time>
      </trkpt>
      <trkpt lat="47.898" lon="6.9594">
        <ele>608.7</ele>
        <time>2021-04-22T13:16:16.000Z</time>
      </trkpt>
      <trkpt lat="47.89795" lon="6.95928">
        <ele>609.3</ele>
        <time>2021-04-22T13:16:25.000Z</time>
      </trkpt>
      <trkpt lat="47.8979" lon="6.95915">
        <ele>609.9</ele>
        <time>2021-04-22T13:16:33.000Z</time>
      </trkpt>
      <trkpt lat="47.89789" lon="6.959">
        <ele>610.6</ele>
        <time>2021-04-22T13:16:43.000Z</time>
      </trkpt>
      <trkpt lat="47.89788" lon="6.95887">
        <ele>611.3</ele>
        <time>2021-04-22T13:16:50.000Z</time>
      </trkpt>
      <trkpt lat="47.89789" lon="6.95872">
        <ele>612.4</ele>
        <time>2021-04-22T13:17:00.000Z</time>
      </trkpt>
      <trkpt lat="47.89792" lon="6.95859">
        <ele>613.9</ele>
        <time>2021-04-22T13:17:08.000Z</time>
      </trkpt>
      <trkpt lat="47.89795" lon="6.95844">
        <ele>615.3</ele>
        <time>2021-04-22T13:17:16.000Z</time>
      </trkpt>
      <trkpt lat="47.89798" lon="6.95832">
        <ele>616.7</ele>
        <time>2021-04-22T13:17:23.000Z</time>
      </trkpt>
      <trkpt lat="47.89799" lon="6.95817">
        <ele>617.4</ele>
        <time>2021-04-22T13:17:31.000Z</time>
      </trkpt>
      <trkpt lat="47.89801" lon="6.95803">
        <ele>618.4</ele>
        <time>2021-04-22T13:17:40.000Z</time>
      </trkpt>
      <trkpt lat="47.89805" lon="6.95791">
        <ele>619.7</ele>
        <time>2021-04-22T13:17:48.000Z</time>
      </trkpt>
      <trkpt lat="47.8981" lon="6.95777">
        <ele>621.1</ele>
        <time>2021-04-22T13:17:56.000Z</time>
      </trkpt>
      <trkpt lat="47.89815" lon="6.95766">
        <ele>622.6</ele>
        <time>2021-04-22T13:18:04.000Z</time>
      </trkpt>
      <trkpt lat="47.89821" lon="6.95755">
        <ele>624.2</ele>
        <time>2021-04-22T13:18:12.000Z</time>
      </trkpt>
      <trkpt lat="47.89828" lon="6.95745">
        <ele>626</ele>
        <time>2021-04-22T13:18:20.000Z</time>
      </trkpt>
      <trkpt lat="47.89834" lon="6.95733">
        <ele>627.6</ele>
        <time>2021-04-22T13:18:28.000Z</time>
      </trkpt>
      <trkpt lat="47.8984" lon="6.95722">
        <ele>628.5</ele>
        <time>2021-04-22T13:18:35.000Z</time>
      </trkpt>
      <trkpt lat="47.89845" lon="6.95711">
        <ele>629.3</ele>
        <time>2021-04-22T13:18:42.000Z</time>
      </trkpt>
      <trkpt lat="47.89853" lon="6.95703">
        <ele>630.2</ele>
        <time>2021-04-22T13:18:48.000Z</time>
      </trkpt>
      <trkpt lat="47.89859" lon="6.95691">
        <ele>631</ele>
        <time>2021-04-22T13:18:56.000Z</time>
      </trkpt>
      <trkpt lat="47.89866" lon="6.95681">
        <ele>631.9</ele>
        <time>2021-04-22T13:19:02.000Z</time>
      </trkpt>
      <trkpt lat="47.89874" lon="6.95672">
        <ele>632.8</ele>
        <time>2021-04-22T13:19:09.000Z</time>
      </trkpt>
      <trkpt lat="47.8988" lon="6.95661">
        <ele>633.2</ele>
        <time>2021-04-22T13:19:15.000Z</time>
      </trkpt>
      <trkpt lat="47.89888" lon="6.95652">
        <ele>633.5</ele>
        <time>2021-04-22T13:19:23.000Z</time>
      </trkpt>
      <trkpt lat="47.89896" lon="6.95643">
        <ele>633.8</ele>
        <time>2021-04-22T13:19:30.000Z</time>
      </trkpt>
      <trkpt lat="47.89901" lon="6.95631">
        <ele>633.7</ele>
        <time>2021-04-22T13:19:35.000Z</time>
      </trkpt>
      <trkpt lat="47.89908" lon="6.95621">
        <ele>633.8</ele>
        <time>2021-04-22T13:19:42.000Z</time>
      </trkpt>
      <trkpt lat="47.89912" lon="6.95608">
        <ele>633.6</ele>
        <time>2021-04-22T13:19:48.000Z</time>
      </trkpt>
      <trkpt lat="47.89917" lon="6.95596">
        <ele>633.4</ele>
        <time>2021-04-22T13:19:55.000Z</time>
      </trkpt>
      <trkpt lat="47.89923" lon="6.95585">
        <ele>633.8</ele>
        <time>2021-04-22T13:20:03.000Z</time>
      </trkpt>
      <trkpt lat="47.8993" lon="6.95574">
        <ele>634.1</ele>
        <time>2021-04-22T13:20:10.000Z</time>
      </trkpt>
      <trkpt lat="47.89934" lon="6.95562">
        <ele>634</ele>
        <time>2021-04-22T13:20:17.000Z</time>
      </trkpt>
      <trkpt lat="47.89942" lon="6.95551">
        <ele>634.4</ele>
        <time>2021-04-22T13:20:25.000Z</time>
      </trkpt>
      <trkpt lat="47.89951" lon="6.95544">
        <ele>635.2</ele>
        <time>2021-04-22T13:20:33.000Z</time>
      </trkpt>
      <trkpt lat="47.89957" lon="6.95532">
        <ele>635.3</ele>
        <time>2021-04-22T13:20:41.000Z</time>
      </trkpt>
      <trkpt lat="47.89961" lon="6.95518">
        <ele>635.1</ele>
        <time>2021-04-22T13:20:49.000Z</time>
      </trkpt>
      <trkpt lat="47.89967" lon="6.95508">
        <ele>635.4</ele>
        <time>2021-04-22T13:20:58.000Z</time>
      </trkpt>
      <trkpt lat="47.89975" lon="6.95499">
        <ele>635.9</ele>
        <time>2021-04-22T13:21:05.000Z</time>
      </trkpt>
      <trkpt lat="47.89979" lon="6.95486">
        <ele>635.7</ele>
        <time>2021-04-22T13:21:12.000Z</time>
      </trkpt>
      <trkpt lat="47.89988" lon="6.95478">
        <ele>636.2</ele>
        <time>2021-04-22T13:21:17.000Z</time>
      </trkpt>
      <trkpt lat="47.89994" lon="6.95468">
        <ele>636.3</ele>
        <time>2021-04-22T13:21:24.000Z</time>
      </trkpt>
      <trkpt lat="47.9" lon="6.95457">
        <ele>636.5</ele>
        <time>2021-04-22T13:21:31.000Z</time>
      </trkpt>
      <trkpt lat="47.90005" lon="6.95446">
        <ele>637.2</ele>
        <time>2021-04-22T13:21:37.000Z</time>
      </trkpt>
      <trkpt lat="47.90012" lon="6.95434">
        <ele>638.2</ele>
        <time>2021-04-22T13:21:45.000Z</time>
      </trkpt>
      <trkpt lat="47.90016" lon="6.95423">
        <ele>638.6</ele>
        <time>2021-04-22T13:21:52.000Z</time>
      </trkpt>
      <trkpt lat="47.90021" lon="6.95411">
        <ele>639.4</ele>
        <time>2021-04-22T13:21:58.000Z</time>
      </trkpt>
      <trkpt lat="47.90028" lon="6.95402">
        <ele>640.8</ele>
        <time>2021-04-22T13:22:05.000Z</time>
      </trkpt>
      <trkpt lat="47.90035" lon="6.9539">
        <ele>642</ele>
        <time>2021-04-22T13:22:14.000Z</time>
      </trkpt>
      <trkpt lat="47.90041" lon="6.95377">
        <ele>642.9</ele>
        <time>2021-04-22T13:22:22.000Z</time>
      </trkpt>
      <trkpt lat="47.90044" lon="6.95364">
        <ele>643.1</ele>
        <time>2021-04-22T13:22:29.000Z</time>
      </trkpt>
      <trkpt lat="47.9005" lon="6.95351">
        <ele>643.5</ele>
        <time>2021-04-22T13:22:36.000Z</time>
      </trkpt>
      <trkpt lat="47.90053" lon="6.95338">
        <ele>643.5</ele>
        <time>2021-04-22T13:22:43.000Z</time>
      </trkpt>
      <trkpt lat="47.90057" lon="6.95326">
        <ele>643.7</ele>
        <time>2021-04-22T13:22:50.000Z</time>
      </trkpt>
      <trkpt lat="47.90063" lon="6.95315">
        <ele>644.5</ele>
        <time>2021-04-22T13:22:56.000Z</time>
      </trkpt>
      <trkpt lat="47.90066" lon="6.95302">
        <ele>644.8</ele>
        <time>2021-04-22T13:23:08.000Z</time>
      </trkpt>
      <trkpt lat="47.90071" lon="6.9529">
        <ele>645.1</ele>
        <time>2021-04-22T13:23:15.000Z</time>
      </trkpt>
      <trkpt lat="47.90077" lon="6.95277">
        <ele>645.4</ele>
        <time>2021-04-22T13:23:22.000Z</time>
      </trkpt>
      <trkpt lat="47.90082" lon="6.95265">
        <ele>645.5</ele>
        <time>2021-04-22T13:23:29.000Z</time>
      </trkpt>
      <trkpt lat="47.90087" lon="6.95253">
        <ele>646.3</ele>
        <time>2021-04-22T13:23:37.000Z</time>
      </trkpt>
      <trkpt lat="47.90093" lon="6.95241">
        <ele>647.5</ele>
        <time>2021-04-22T13:23:44.000Z</time>
      </trkpt>
      <trkpt lat="47.90098" lon="6.9523">
        <ele>648.4</ele>
        <time>2021-04-22T13:23:50.000Z</time>
      </trkpt>
      <trkpt lat="47.90101" lon="6.95216">
        <ele>648.2</ele>
        <time>2021-04-22T13:23:57.000Z</time>
      </trkpt>
      <trkpt lat="47.90105" lon="6.95203">
        <ele>648.2</ele>
        <time>2021-04-22T13:24:04.000Z</time>
      </trkpt>
      <trkpt lat="47.90109" lon="6.95191">
        <ele>648.4</ele>
        <time>2021-04-22T13:24:10.000Z</time>
      </trkpt>
      <trkpt lat="47.90114" lon="6.95179">
        <ele>648.3</ele>
        <time>2021-04-22T13:24:17.000Z</time>
      </trkpt>
      <trkpt lat="47.9012" lon="6.95168">
        <ele>648.7</ele>
        <time>2021-04-22T13:24:22.000Z</time>
      </trkpt>
      <trkpt lat="47.90125" lon="6.95157">
        <ele>648.9</ele>
        <time>2021-04-22T13:24:28.000Z</time>
      </trkpt>
      <trkpt lat="47.90131" lon="6.95144">
        <ele>648.9</ele>
        <time>2021-04-22T13:24:37.000Z</time>
      </trkpt>
      <trkpt lat="47.90136" lon="6.9513">
        <ele>648.7</ele>
        <time>2021-04-22T13:24:42.000Z</time>
      </trkpt>
      <trkpt lat="47.90139" lon="6.95118">
        <ele>648.2</ele>
        <time>2021-04-22T13:24:48.000Z</time>
      </trkpt>
      <trkpt lat="47.90144" lon="6.95104">
        <ele>647.8</ele>
        <time>2021-04-22T13:24:57.000Z</time>
      </trkpt>
      <trkpt lat="47.90149" lon="6.95091">
        <ele>647.3</ele>
        <time>2021-04-22T13:25:05.000Z</time>
      </trkpt>
      <trkpt lat="47.90154" lon="6.9508">
        <ele>647</ele>
        <time>2021-04-22T13:25:10.000Z</time>
      </trkpt>
      <trkpt lat="47.90159" lon="6.95067">
        <ele>646.4</ele>
        <time>2021-04-22T13:25:19.000Z</time>
      </trkpt>
      <trkpt lat="47.9016" lon="6.95054">
        <ele>645.1</ele>
        <time>2021-04-22T13:25:26.000Z</time>
      </trkpt>
      <trkpt lat="47.90161" lon="6.95039">
        <ele>643.7</ele>
        <time>2021-04-22T13:25:33.000Z</time>
      </trkpt>
      <trkpt lat="47.90165" lon="6.95026">
        <ele>642.6</ele>
        <time>2021-04-22T13:25:38.000Z</time>
      </trkpt>
      <trkpt lat="47.90168" lon="6.95012">
        <ele>641.6</ele>
        <time>2021-04-22T13:25:46.000Z</time>
      </trkpt>
      <trkpt lat="47.90167" lon="6.94997">
        <ele>640.1</ele>
        <time>2021-04-22T13:25:55.000Z</time>
      </trkpt>
      <trkpt lat="47.90165" lon="6.94984">
        <ele>639.9</ele>
        <time>2021-04-22T13:26:00.000Z</time>
      </trkpt>
      <trkpt lat="47.9016" lon="6.94969">
        <ele>639.8</ele>
        <time>2021-04-22T13:26:07.000Z</time>
      </trkpt>
      <trkpt lat="47.90158" lon="6.94955">
        <ele>639.8</ele>
        <time>2021-04-22T13:26:14.000Z</time>
      </trkpt>
      <trkpt lat="47.90156" lon="6.94939">
        <ele>639.8</ele>
        <time>2021-04-22T13:26:20.000Z</time>
      </trkpt>
      <trkpt lat="47.90155" lon="6.94924">
        <ele>639.8</ele>
        <time>2021-04-22T13:26:29.000Z</time>
      </trkpt>
      <trkpt lat="47.90156" lon="6.94909">
        <ele>640.1</ele>
        <time>2021-04-22T13:26:38.000Z</time>
      </trkpt>
      <trkpt lat="47.90157" lon="6.94895">
        <ele>640.4</ele>
        <time>2021-04-22T13:26:45.000Z</time>
      </trkpt>
      <trkpt lat="47.90157" lon="6.94881">
        <ele>640.8</ele>
        <time>2021-04-22T13:26:52.000Z</time>
      </trkpt>
      <trkpt lat="47.90158" lon="6.94866">
        <ele>641.2</ele>
        <time>2021-04-22T13:26:58.000Z</time>
      </trkpt>
      <trkpt lat="47.90159" lon="6.94853">
        <ele>641.5</ele>
        <time>2021-04-22T13:27:05.000Z</time>
      </trkpt>
      <trkpt lat="47.90161" lon="6.94839">
        <ele>641.9</ele>
        <time>2021-04-22T13:27:13.000Z</time>
      </trkpt>
      <trkpt lat="47.90162" lon="6.94825">
        <ele>642.3</ele>
        <time>2021-04-22T13:27:20.000Z</time>
      </trkpt>
      <trkpt lat="47.90163" lon="6.94812">
        <ele>642.8</ele>
        <time>2021-04-22T13:27:27.000Z</time>
      </trkpt>
      <trkpt lat="47.90166" lon="6.94798">
        <ele>643.3</ele>
        <time>2021-04-22T13:27:35.000Z</time>
      </trkpt>
      <trkpt lat="47.90169" lon="6.94784">
        <ele>643.9</ele>
        <time>2021-04-22T13:27:43.000Z</time>
      </trkpt>
      <trkpt lat="47.90172" lon="6.94771">
        <ele>644.6</ele>
        <time>2021-04-22T13:27:50.000Z</time>
      </trkpt>
      <trkpt lat="47.90173" lon="6.94757">
        <ele>645.2</ele>
        <time>2021-04-22T13:27:56.000Z</time>
      </trkpt>
      <trkpt lat="47.90175" lon="6.94742">
        <ele>646.1</ele>
        <time>2021-04-22T13:28:04.000Z</time>
      </trkpt>
      <trkpt lat="47.90177" lon="6.94729">
        <ele>647.2</ele>
        <time>2021-04-22T13:28:11.000Z</time>
      </trkpt>
      <trkpt lat="47.90179" lon="6.94716">
        <ele>648.2</ele>
        <time>2021-04-22T13:28:18.000Z</time>
      </trkpt>
      <trkpt lat="47.90182" lon="6.94702">
        <ele>649.2</ele>
        <time>2021-04-22T13:28:26.000Z</time>
      </trkpt>
      <trkpt lat="47.90184" lon="6.94687">
        <ele>650.3</ele>
        <time>2021-04-22T13:28:34.000Z</time>
      </trkpt>
      <trkpt lat="47.90186" lon="6.94671">
        <ele>651.4</ele>
        <time>2021-04-22T13:28:42.000Z</time>
      </trkpt>
      <trkpt lat="47.90188" lon="6.94657">
        <ele>651.8</ele>
        <time>2021-04-22T13:28:50.000Z</time>
      </trkpt>
      <trkpt lat="47.90188" lon="6.94643">
        <ele>651.8</ele>
        <time>2021-04-22T13:28:58.000Z</time>
      </trkpt>
      <trkpt lat="47.9019" lon="6.94628">
        <ele>651.8</ele>
        <time>2021-04-22T13:29:06.000Z</time>
      </trkpt>
      <trkpt lat="47.90192" lon="6.94612">
        <ele>651.9</ele>
        <time>2021-04-22T13:29:14.000Z</time>
      </trkpt>
      <trkpt lat="47.90193" lon="6.94596">
        <ele>652</ele>
        <time>2021-04-22T13:29:22.000Z</time>
      </trkpt>
      <trkpt lat="47.90195" lon="6.94581">
        <ele>652.1</ele>
        <time>2021-04-22T13:29:30.000Z</time>
      </trkpt>
      <trkpt lat="47.90196" lon="6.94568">
        <ele>652.8</ele>
        <time>2021-04-22T13:29:38.000Z</time>
      </trkpt>
      <trkpt lat="47.90198" lon="6.94555">
        <ele>653.5</ele>
        <time>2021-04-22T13:29:45.000Z</time>
      </trkpt>
      <trkpt lat="47.902" lon="6.94541">
        <ele>654.2</ele>
        <time>2021-04-22T13:29:52.000Z</time>
      </trkpt>
      <trkpt lat="47.90201" lon="6.94527">
        <ele>654.8</ele>
        <time>2021-04-22T13:29:58.000Z</time>
      </trkpt>
      <trkpt lat="47.90202" lon="6.94513">
        <ele>655.4</ele>
        <time>2021-04-22T13:30:06.000Z</time>
      </trkpt>
      <trkpt lat="47.90204" lon="6.94499">
        <ele>656</ele>
        <time>2021-04-22T13:30:14.000Z</time>
      </trkpt>
      <trkpt lat="47.90205" lon="6.94485">
        <ele>656.8</ele>
        <time>2021-04-22T13:30:21.000Z</time>
      </trkpt>
      <trkpt lat="47.90204" lon="6.94471">
        <ele>657.6</ele>
        <time>2021-04-22T13:30:29.000Z</time>
      </trkpt>
      <trkpt lat="47.90204" lon="6.94458">
        <ele>658.4</ele>
        <time>2021-04-22T13:30:36.000Z</time>
      </trkpt>
      <trkpt lat="47.90204" lon="6.94442">
        <ele>659.3</ele>
        <time>2021-04-22T13:30:43.000Z</time>
      </trkpt>
      <trkpt lat="47.90206" lon="6.94428">
        <ele>660</ele>
        <time>2021-04-22T13:30:50.000Z</time>
      </trkpt>
      <trkpt lat="47.90206" lon="6.94414">
        <ele>660.9</ele>
        <time>2021-04-22T13:30:58.000Z</time>
      </trkpt>
      <trkpt lat="47.90206" lon="6.944">
        <ele>662.3</ele>
        <time>2021-04-22T13:31:05.000Z</time>
      </trkpt>
      <trkpt lat="47.90208" lon="6.94385">
        <ele>663.6</ele>
        <time>2021-04-22T13:31:13.000Z</time>
      </trkpt>
      <trkpt lat="47.9021" lon="6.94371">
        <ele>664.8</ele>
        <time>2021-04-22T13:31:20.000Z</time>
      </trkpt>
      <trkpt lat="47.9021" lon="6.94356">
        <ele>666.2</ele>
        <time>2021-04-22T13:31:28.000Z</time>
      </trkpt>
      <trkpt lat="47.90212" lon="6.94341">
        <ele>667.4</ele>
        <time>2021-04-22T13:31:36.000Z</time>
      </trkpt>
      <trkpt lat="47.90214" lon="6.94325">
        <ele>668.6</ele>
        <time>2021-04-22T13:31:44.000Z</time>
      </trkpt>
      <trkpt lat="47.90217" lon="6.94311">
        <ele>669.4</ele>
        <time>2021-04-22T13:31:53.000Z</time>
      </trkpt>
      <trkpt lat="47.90221" lon="6.94298">
        <ele>670</ele>
        <time>2021-04-22T13:32:02.000Z</time>
      </trkpt>
      <trkpt lat="47.90223" lon="6.94284">
        <ele>670.8</ele>
        <time>2021-04-22T13:32:08.000Z</time>
      </trkpt>
      <trkpt lat="47.90226" lon="6.94272">
        <ele>671.5</ele>
        <time>2021-04-22T13:32:15.000Z</time>
      </trkpt>
      <trkpt lat="47.90229" lon="6.94257">
        <ele>672.2</ele>
        <time>2021-04-22T13:32:23.000Z</time>
      </trkpt>
      <trkpt lat="47.9023" lon="6.94243">
        <ele>673.1</ele>
        <time>2021-04-22T13:32:30.000Z</time>
      </trkpt>
      <trkpt lat="47.90231" lon="6.94229">
        <ele>673.8</ele>
        <time>2021-04-22T13:32:37.000Z</time>
      </trkpt>
      <trkpt lat="47.9023" lon="6.94213">
        <ele>674.8</ele>
        <time>2021-04-22T13:32:45.000Z</time>
      </trkpt>
      <trkpt lat="47.90228" lon="6.942">
        <ele>676</ele>
        <time>2021-04-22T13:32:52.000Z</time>
      </trkpt>
      <trkpt lat="47.90224" lon="6.94185">
        <ele>677.5</ele>
        <time>2021-04-22T13:33:01.000Z</time>
      </trkpt>
      <trkpt lat="47.9022" lon="6.94173">
        <ele>679</ele>
        <time>2021-04-22T13:33:08.000Z</time>
      </trkpt>
      <trkpt lat="47.90215" lon="6.94161">
        <ele>680.8</ele>
        <time>2021-04-22T13:33:15.000Z</time>
      </trkpt>
      <trkpt lat="47.90209" lon="6.94149">
        <ele>682.7</ele>
        <time>2021-04-22T13:33:23.000Z</time>
      </trkpt>
      <trkpt lat="47.90204" lon="6.94136">
        <ele>684.6</ele>
        <time>2021-04-22T13:33:31.000Z</time>
      </trkpt>
      <trkpt lat="47.90202" lon="6.94121">
        <ele>686.3</ele>
        <time>2021-04-22T13:33:39.000Z</time>
      </trkpt>
      <trkpt lat="47.90201" lon="6.94108">
        <ele>687.4</ele>
        <time>2021-04-22T13:33:47.000Z</time>
      </trkpt>
      <trkpt lat="47.90201" lon="6.94093">
        <ele>688.6</ele>
        <time>2021-04-22T13:33:55.000Z</time>
      </trkpt>
      <trkpt lat="47.902" lon="6.94078">
        <ele>690</ele>
        <time>2021-04-22T13:34:03.000Z</time>
      </trkpt>
      <trkpt lat="47.90199" lon="6.94063">
        <ele>691.1</ele>
        <time>2021-04-22T13:34:11.000Z</time>
      </trkpt>
      <trkpt lat="47.90198" lon="6.94048">
        <ele>692</ele>
        <time>2021-04-22T13:34:19.000Z</time>
      </trkpt>
      <trkpt lat="47.90195" lon="6.94035">
        <ele>693.2</ele>
        <time>2021-04-22T13:34:26.000Z</time>
      </trkpt>
      <trkpt lat="47.90193" lon="6.94022">
        <ele>694.1</ele>
        <time>2021-04-22T13:34:33.000Z</time>
      </trkpt>
      <trkpt lat="47.90191" lon="6.94007">
        <ele>695.1</ele>
        <time>2021-04-22T13:34:41.000Z</time>
      </trkpt>
      <trkpt lat="47.90188" lon="6.93993">
        <ele>695.7</ele>
        <time>2021-04-22T13:34:49.000Z</time>
      </trkpt>
      <trkpt lat="47.90186" lon="6.93979">
        <ele>695.9</ele>
        <time>2021-04-22T13:34:56.000Z</time>
      </trkpt>
      <trkpt lat="47.90181" lon="6.93967">
        <ele>696.2</ele>
        <time>2021-04-22T13:35:06.000Z</time>
      </trkpt>
      <trkpt lat="47.90173" lon="6.93957">
        <ele>696.5</ele>
        <time>2021-04-22T13:35:16.000Z</time>
      </trkpt>
      <trkpt lat="47.90164" lon="6.9395">
        <ele>697.6</ele>
        <time>2021-04-22T13:35:23.000Z</time>
      </trkpt>
      <trkpt lat="47.90156" lon="6.93944">
        <ele>700.3</ele>
        <time>2021-04-22T13:35:33.000Z</time>
      </trkpt>
      <trkpt lat="47.90148" lon="6.93953">
        <ele>703.3</ele>
        <time>2021-04-22T13:35:55.000Z</time>
      </trkpt>
      <trkpt lat="47.90147" lon="6.93967">
        <ele>704.5</ele>
        <time>2021-04-22T13:36:03.000Z</time>
      </trkpt>
      <trkpt lat="47.90146" lon="6.93981">
        <ele>705.5</ele>
        <time>2021-04-22T13:36:11.000Z</time>
      </trkpt>
      <trkpt lat="47.90146" lon="6.93995">
        <ele>706.2</ele>
        <time>2021-04-22T13:36:20.000Z</time>
      </trkpt>
      <trkpt lat="47.90143" lon="6.94009">
        <ele>707.4</ele>
        <time>2021-04-22T13:36:28.000Z</time>
      </trkpt>
      <trkpt lat="47.9014" lon="6.94023">
        <ele>708.3</ele>
        <time>2021-04-22T13:36:36.000Z</time>
      </trkpt>
      <trkpt lat="47.90139" lon="6.94037">
        <ele>708.8</ele>
        <time>2021-04-22T13:36:44.000Z</time>
      </trkpt>
      <trkpt lat="47.90135" lon="6.9405">
        <ele>710</ele>
        <time>2021-04-22T13:36:52.000Z</time>
      </trkpt>
      <trkpt lat="47.90126" lon="6.94055">
        <ele>713.5</ele>
        <time>2021-04-22T13:37:02.000Z</time>
      </trkpt>
      <trkpt lat="47.90119" lon="6.94046">
        <ele>716.3</ele>
        <time>2021-04-22T13:37:15.000Z</time>
      </trkpt>
      <trkpt lat="47.90118" lon="6.94032">
        <ele>716.8</ele>
        <time>2021-04-22T13:37:25.000Z</time>
      </trkpt>
      <trkpt lat="47.90117" lon="6.94018">
        <ele>717.3</ele>
        <time>2021-04-22T13:37:34.000Z</time>
      </trkpt>
      <trkpt lat="47.90112" lon="6.94007">
        <ele>719.5</ele>
        <time>2021-04-22T13:37:47.000Z</time>
      </trkpt>
      <trkpt lat="47.90106" lon="6.93997">
        <ele>721.9</ele>
        <time>2021-04-22T13:38:14.000Z</time>
      </trkpt>
      <trkpt lat="47.90098" lon="6.93989">
        <ele>724.2</ele>
        <time>2021-04-22T13:38:21.000Z</time>
      </trkpt>
      <trkpt lat="47.90091" lon="6.93978">
        <ele>726</ele>
        <time>2021-04-22T13:38:28.000Z</time>
      </trkpt>
      <trkpt lat="47.90085" lon="6.93968">
        <ele>727</ele>
        <time>2021-04-22T13:38:36.000Z</time>
      </trkpt>
      <trkpt lat="47.90079" lon="6.93956">
        <ele>728.3</ele>
        <time>2021-04-22T13:38:43.000Z</time>
      </trkpt>
      <trkpt lat="47.90073" lon="6.93944">
        <ele>729.8</ele>
        <time>2021-04-22T13:38:51.000Z</time>
      </trkpt>
      <trkpt lat="47.90069" lon="6.9393">
        <ele>729.9</ele>
        <time>2021-04-22T13:38:58.000Z</time>
      </trkpt>
      <trkpt lat="47.90068" lon="6.93916">
        <ele>729.2</ele>
        <time>2021-04-22T13:39:05.000Z</time>
      </trkpt>
      <trkpt lat="47.90063" lon="6.93903">
        <ele>730.7</ele>
        <time>2021-04-22T13:39:13.000Z</time>
      </trkpt>
      <trkpt lat="47.9006" lon="6.9389">
        <ele>731.8</ele>
        <time>2021-04-22T13:39:21.000Z</time>
      </trkpt>
      <trkpt lat="47.90058" lon="6.93876">
        <ele>732.2</ele>
        <time>2021-04-22T13:39:28.000Z</time>
      </trkpt>
      <trkpt lat="47.90054" lon="6.93863">
        <ele>733.5</ele>
        <time>2021-04-22T13:39:35.000Z</time>
      </trkpt>
      <trkpt lat="47.90049" lon="6.93852">
        <ele>735.1</ele>
        <time>2021-04-22T13:39:43.000Z</time>
      </trkpt>
      <trkpt lat="47.90042" lon="6.93841">
        <ele>737.6</ele>
        <time>2021-04-22T13:39:54.000Z</time>
      </trkpt>
      <trkpt lat="47.90034" lon="6.93835">
        <ele>740.9</ele>
        <time>2021-04-22T13:40:01.000Z</time>
      </trkpt>
      <trkpt lat="47.9003" lon="6.93822">
        <ele>742</ele>
        <time>2021-04-22T13:40:07.000Z</time>
      </trkpt>
      <trkpt lat="47.90026" lon="6.93804">
        <ele>742.2</ele>
        <time>2021-04-22T13:40:12.000Z</time>
      </trkpt>
      <trkpt lat="47.90022" lon="6.93792">
        <ele>742.8</ele>
        <time>2021-04-22T13:40:18.000Z</time>
      </trkpt>
      <trkpt lat="47.90019" lon="6.9378">
        <ele>742.6</ele>
        <time>2021-04-22T13:40:24.000Z</time>
      </trkpt>
      <trkpt lat="47.90013" lon="6.93768">
        <ele>743.1</ele>
        <time>2021-04-22T13:40:30.000Z</time>
      </trkpt>
      <trkpt lat="47.90007" lon="6.93756">
        <ele>743.3</ele>
        <time>2021-04-22T13:40:39.000Z</time>
      </trkpt>
      <trkpt lat="47.90002" lon="6.93743">
        <ele>743.4</ele>
        <time>2021-04-22T13:40:48.000Z</time>
      </trkpt>
      <trkpt lat="47.89997" lon="6.93732">
        <ele>744.8</ele>
        <time>2021-04-22T13:40:54.000Z</time>
      </trkpt>
      <trkpt lat="47.89996" lon="6.93718">
        <ele>744.4</ele>
        <time>2021-04-22T13:41:01.000Z</time>
      </trkpt>
      <trkpt lat="47.89991" lon="6.93704">
        <ele>746.1</ele>
        <time>2021-04-22T13:41:09.000Z</time>
      </trkpt>
      <trkpt lat="47.8999" lon="6.93689">
        <ele>745.8</ele>
        <time>2021-04-22T13:41:16.000Z</time>
      </trkpt>
      <trkpt lat="47.89986" lon="6.93676">
        <ele>746.7</ele>
        <time>2021-04-22T13:41:24.000Z</time>
      </trkpt>
      <trkpt lat="47.89981" lon="6.93663">
        <ele>748.7</ele>
        <time>2021-04-22T13:41:33.000Z</time>
      </trkpt>
      <trkpt lat="47.89975" lon="6.93652">
        <ele>751.6</ele>
        <time>2021-04-22T13:41:41.000Z</time>
      </trkpt>
      <trkpt lat="47.89973" lon="6.93638">
        <ele>752.7</ele>
        <time>2021-04-22T13:41:49.000Z</time>
      </trkpt>
      <trkpt lat="47.89972" lon="6.93623">
        <ele>753.3</ele>
        <time>2021-04-22T13:41:57.000Z</time>
      </trkpt>
      <trkpt lat="47.89972" lon="6.9361">
        <ele>753.4</ele>
        <time>2021-04-22T13:42:05.000Z</time>
      </trkpt>
      <trkpt lat="47.8997" lon="6.93596">
        <ele>754.3</ele>
        <time>2021-04-22T13:42:14.000Z</time>
      </trkpt>
      <trkpt lat="47.89969" lon="6.93581">
        <ele>754.8</ele>
        <time>2021-04-22T13:42:26.000Z</time>
      </trkpt>
      <trkpt lat="47.89971" lon="6.93568">
        <ele>754.9</ele>
        <time>2021-04-22T13:42:33.000Z</time>
      </trkpt>
      <trkpt lat="47.89972" lon="6.93552">
        <ele>755.6</ele>
        <time>2021-04-22T13:42:38.000Z</time>
      </trkpt>
      <trkpt lat="47.8997" lon="6.93539">
        <ele>757</ele>
        <time>2021-04-22T13:42:46.000Z</time>
      </trkpt>
      <trkpt lat="47.89967" lon="6.93525">
        <ele>758.4</ele>
        <time>2021-04-22T13:42:54.000Z</time>
      </trkpt>
      <trkpt lat="47.89961" lon="6.93514">
        <ele>760</ele>
        <time>2021-04-22T13:43:01.000Z</time>
      </trkpt>
      <trkpt lat="47.89957" lon="6.93502">
        <ele>761.2</ele>
        <time>2021-04-22T13:43:08.000Z</time>
      </trkpt>
      <trkpt lat="47.89954" lon="6.93487">
        <ele>762.1</ele>
        <time>2021-04-22T13:43:18.000Z</time>
      </trkpt>
      <trkpt lat="47.89947" lon="6.93477">
        <ele>763.2</ele>
        <time>2021-04-22T13:43:26.000Z</time>
      </trkpt>
      <trkpt lat="47.89941" lon="6.93465">
        <ele>764.2</ele>
        <time>2021-04-22T13:43:34.000Z</time>
      </trkpt>
      <trkpt lat="47.89936" lon="6.93453">
        <ele>764.9</ele>
        <time>2021-04-22T13:43:42.000Z</time>
      </trkpt>
      <trkpt lat="47.89928" lon="6.93444">
        <ele>765.6</ele>
        <time>2021-04-22T13:43:51.000Z</time>
      </trkpt>
      <trkpt lat="47.89922" lon="6.93433">
        <ele>766</ele>
        <time>2021-04-22T13:44:00.000Z</time>
      </trkpt>
      <trkpt lat="47.89916" lon="6.93421">
        <ele>766.6</ele>
        <time>2021-04-22T13:44:08.000Z</time>
      </trkpt>
      <trkpt lat="47.89911" lon="6.93409">
        <ele>770</ele>
        <time>2021-04-22T13:44:16.000Z</time>
      </trkpt>
      <trkpt lat="47.89906" lon="6.93397">
        <ele>773.8</ele>
        <time>2021-04-22T13:44:23.000Z</time>
      </trkpt>
      <trkpt lat="47.89901" lon="6.93384">
        <ele>777.3</ele>
        <time>2021-04-22T13:44:31.000Z</time>
      </trkpt>
      <trkpt lat="47.89901" lon="6.9337">
        <ele>778.3</ele>
        <time>2021-04-22T13:44:40.000Z</time>
      </trkpt>
      <trkpt lat="47.89897" lon="6.93357">
        <ele>781.2</ele>
        <time>2021-04-22T13:44:49.000Z</time>
      </trkpt>
      <trkpt lat="47.89895" lon="6.93343">
        <ele>783.3</ele>
        <time>2021-04-22T13:44:59.000Z</time>
      </trkpt>
      <trkpt lat="47.89893" lon="6.93329">
        <ele>785.5</ele>
        <time>2021-04-22T13:45:07.000Z</time>
      </trkpt>
      <trkpt lat="47.8989" lon="6.93316">
        <ele>787.7</ele>
        <time>2021-04-22T13:45:14.000Z</time>
      </trkpt>
      <trkpt lat="47.89888" lon="6.93302">
        <ele>789.8</ele>
        <time>2021-04-22T13:45:23.000Z</time>
      </trkpt>
      <trkpt lat="47.8989" lon="6.93286">
        <ele>790.1</ele>
        <time>2021-04-22T13:45:31.000Z</time>
      </trkpt>
      <trkpt lat="47.89892" lon="6.93272">
        <ele>789.9</ele>
        <time>2021-04-22T13:45:39.000Z</time>
      </trkpt>
      <trkpt lat="47.89892" lon="6.93257">
        <ele>791.3</ele>
        <time>2021-04-22T13:45:50.000Z</time>
      </trkpt>
      <trkpt lat="47.89893" lon="6.93242">
        <ele>792.2</ele>
        <time>2021-04-22T13:45:59.000Z</time>
      </trkpt>
      <trkpt lat="47.89895" lon="6.93227">
        <ele>792.6</ele>
        <time>2021-04-22T13:46:06.000Z</time>
      </trkpt>
      <trkpt lat="47.89898" lon="6.93212">
        <ele>792.7</ele>
        <time>2021-04-22T13:46:14.000Z</time>
      </trkpt>
      <trkpt lat="47.899" lon="6.93198">
        <ele>793.3</ele>
        <time>2021-04-22T13:46:21.000Z</time>
      </trkpt>
      <trkpt lat="47.89902" lon="6.93185">
        <ele>794.1</ele>
        <time>2021-04-22T13:46:29.000Z</time>
      </trkpt>
      <trkpt lat="47.89902" lon="6.93171">
        <ele>795.4</ele>
        <time>2021-04-22T13:46:38.000Z</time>
      </trkpt>
      <trkpt lat="47.89902" lon="6.93157">
        <ele>797.3</ele>
        <time>2021-04-22T13:46:45.000Z</time>
      </trkpt>
      <trkpt lat="47.89902" lon="6.93142">
        <ele>799.3</ele>
        <time>2021-04-22T13:46:54.000Z</time>
      </trkpt>
      <trkpt lat="47.89902" lon="6.93128">
        <ele>801.4</ele>
        <time>2021-04-22T13:47:00.000Z</time>
      </trkpt>
      <trkpt lat="47.899" lon="6.93114">
        <ele>804.1</ele>
        <time>2021-04-22T13:47:06.000Z</time>
      </trkpt>
      <trkpt lat="47.899" lon="6.93099">
        <ele>806.4</ele>
        <time>2021-04-22T13:47:13.000Z</time>
      </trkpt>
      <trkpt lat="47.89903" lon="6.93086">
        <ele>807.1</ele>
        <time>2021-04-22T13:47:20.000Z</time>
      </trkpt>
      <trkpt lat="47.89905" lon="6.93073">
        <ele>808.7</ele>
        <time>2021-04-22T13:47:27.000Z</time>
      </trkpt>
      <trkpt lat="47.89908" lon="6.93058">
        <ele>810.6</ele>
        <time>2021-04-22T13:47:33.000Z</time>
      </trkpt>
      <trkpt lat="47.89908" lon="6.93044">
        <ele>813</ele>
        <time>2021-04-22T13:47:42.000Z</time>
      </trkpt>
      <trkpt lat="47.89913" lon="6.93033">
        <ele>813.4</ele>
        <time>2021-04-22T13:47:49.000Z</time>
      </trkpt>
      <trkpt lat="47.89921" lon="6.93023">
        <ele>813.6</ele>
        <time>2021-04-22T13:48:00.000Z</time>
      </trkpt>
      <trkpt lat="47.89927" lon="6.93013">
        <ele>815.6</ele>
        <time>2021-04-22T13:48:10.000Z</time>
      </trkpt>
      <trkpt lat="47.89934" lon="6.93003">
        <ele>817.3</ele>
        <time>2021-04-22T13:48:19.000Z</time>
      </trkpt>
      <trkpt lat="47.89941" lon="6.92993">
        <ele>819</ele>
        <time>2021-04-22T13:48:27.000Z</time>
      </trkpt>
      <trkpt lat="47.8995" lon="6.92998">
        <ele>817.9</ele>
        <time>2021-04-22T13:48:41.000Z</time>
      </trkpt>
      <trkpt lat="47.89957" lon="6.93008">
        <ele>816.4</ele>
        <time>2021-04-22T13:48:47.000Z</time>
      </trkpt>
      <trkpt lat="47.89965" lon="6.93016">
        <ele>815.5</ele>
        <time>2021-04-22T13:48:54.000Z</time>
      </trkpt>
      <trkpt lat="47.89973" lon="6.93023">
        <ele>814.8</ele>
        <time>2021-04-22T13:48:59.000Z</time>
      </trkpt>
      <trkpt lat="47.89977" lon="6.93037">
        <ele>813.3</ele>
        <time>2021-04-22T13:49:05.000Z</time>
      </trkpt>
      <trkpt lat="47.89986" lon="6.93037">
        <ele>813.8</ele>
        <time>2021-04-22T13:49:12.000Z</time>
      </trkpt>
      <trkpt lat="47.89995" lon="6.93051">
        <ele>813</ele>
        <time>2021-04-22T13:49:17.000Z</time>
      </trkpt>
      <trkpt lat="47.9" lon="6.93065">
        <ele>812.3</ele>
        <time>2021-04-22T13:49:24.000Z</time>
      </trkpt>
      <trkpt lat="47.90003" lon="6.93078">
        <ele>812.6</ele>
        <time>2021-04-22T13:49:30.000Z</time>
      </trkpt>
      <trkpt lat="47.9001" lon="6.93088">
        <ele>814.1</ele>
        <time>2021-04-22T13:49:38.000Z</time>
      </trkpt>
      <trkpt lat="47.90014" lon="6.931">
        <ele>813.5</ele>
        <time>2021-04-22T13:49:45.000Z</time>
      </trkpt>
      <trkpt lat="47.90019" lon="6.93112">
        <ele>813.4</ele>
        <time>2021-04-22T13:49:52.000Z</time>
      </trkpt>
      <trkpt lat="47.90025" lon="6.93123">
        <ele>813.6</ele>
        <time>2021-04-22T13:49:59.000Z</time>
      </trkpt>
      <trkpt lat="47.90032" lon="6.93132">
        <ele>814.6</ele>
        <time>2021-04-22T13:50:06.000Z</time>
      </trkpt>
      <trkpt lat="47.90038" lon="6.93145">
        <ele>815</ele>
        <time>2021-04-22T13:50:14.000Z</time>
      </trkpt>
      <trkpt lat="47.90043" lon="6.93158">
        <ele>814.6</ele>
        <time>2021-04-22T13:50:21.000Z</time>
      </trkpt>
      <trkpt lat="47.90046" lon="6.93172">
        <ele>813.5</ele>
        <time>2021-04-22T13:50:29.000Z</time>
      </trkpt>
      <trkpt lat="47.90047" lon="6.93187">
        <ele>811.6</ele>
        <time>2021-04-22T13:50:37.000Z</time>
      </trkpt>
      <trkpt lat="47.9005" lon="6.93201">
        <ele>810.7</ele>
        <time>2021-04-22T13:50:43.000Z</time>
      </trkpt>
      <trkpt lat="47.90055" lon="6.93215">
        <ele>810.6</ele>
        <time>2021-04-22T13:50:51.000Z</time>
      </trkpt>
      <trkpt lat="47.90057" lon="6.93228">
        <ele>809.5</ele>
        <time>2021-04-22T13:50:57.000Z</time>
      </trkpt>
      <trkpt lat="47.90061" lon="6.93243">
        <ele>809.3</ele>
        <time>2021-04-22T13:51:04.000Z</time>
      </trkpt>
      <trkpt lat="47.90068" lon="6.93254">
        <ele>810.7</ele>
        <time>2021-04-22T13:51:12.000Z</time>
      </trkpt>
      <trkpt lat="47.9007" lon="6.93268">
        <ele>810.2</ele>
        <time>2021-04-22T13:51:18.000Z</time>
      </trkpt>
      <trkpt lat="47.90073" lon="6.93283">
        <ele>809.8</ele>
        <time>2021-04-22T13:51:24.000Z</time>
      </trkpt>
      <trkpt lat="47.90076" lon="6.93296">
        <ele>809.8</ele>
        <time>2021-04-22T13:51:29.000Z</time>
      </trkpt>
      <trkpt lat="47.90078" lon="6.9331">
        <ele>809</ele>
        <time>2021-04-22T13:51:37.000Z</time>
      </trkpt>
      <trkpt lat="47.90083" lon="6.93321">
        <ele>810.2</ele>
        <time>2021-04-22T13:51:43.000Z</time>
      </trkpt>
      <trkpt lat="47.90089" lon="6.93333">
        <ele>811.5</ele>
        <time>2021-04-22T13:51:50.000Z</time>
      </trkpt>
      <trkpt lat="47.90091" lon="6.93346">
        <ele>810</ele>
        <time>2021-04-22T13:52:06.000Z</time>
      </trkpt>
      <trkpt lat="47.90094" lon="6.9336">
        <ele>809.2</ele>
        <time>2021-04-22T13:52:13.000Z</time>
      </trkpt>
      <trkpt lat="47.90099" lon="6.93372">
        <ele>808.8</ele>
        <time>2021-04-22T13:52:18.000Z</time>
      </trkpt>
      <trkpt lat="47.90102" lon="6.93385">
        <ele>807.5</ele>
        <time>2021-04-22T13:52:24.000Z</time>
      </trkpt>
      <trkpt lat="47.90108" lon="6.93397">
        <ele>807.6</ele>
        <time>2021-04-22T13:52:31.000Z</time>
      </trkpt>
      <trkpt lat="47.90115" lon="6.93407">
        <ele>807.7</ele>
        <time>2021-04-22T13:52:39.000Z</time>
      </trkpt>
      <trkpt lat="47.90122" lon="6.93418">
        <ele>807.2</ele>
        <time>2021-04-22T13:52:46.000Z</time>
      </trkpt>
      <trkpt lat="47.90127" lon="6.93431">
        <ele>805.7</ele>
        <time>2021-04-22T13:52:53.000Z</time>
      </trkpt>
      <trkpt lat="47.90133" lon="6.93441">
        <ele>805</ele>
        <time>2021-04-22T13:53:00.000Z</time>
      </trkpt>
      <trkpt lat="47.90139" lon="6.93452">
        <ele>803.7</ele>
        <time>2021-04-22T13:53:07.000Z</time>
      </trkpt>
      <trkpt lat="47.90148" lon="6.9346">
        <ele>804.1</ele>
        <time>2021-04-22T13:53:16.000Z</time>
      </trkpt>
      <trkpt lat="47.90157" lon="6.93466">
        <ele>805.1</ele>
        <time>2021-04-22T13:53:23.000Z</time>
      </trkpt>
      <trkpt lat="47.90166" lon="6.93474">
        <ele>805.3</ele>
        <time>2021-04-22T13:53:31.000Z</time>
      </trkpt>
      <trkpt lat="47.90176" lon="6.93477">
        <ele>804.7</ele>
        <time>2021-04-22T13:53:39.000Z</time>
      </trkpt>
      <trkpt lat="47.90187" lon="6.93476">
        <ele>805</ele>
        <time>2021-04-22T13:53:46.000Z</time>
      </trkpt>
      <trkpt lat="47.90196" lon="6.93475">
        <ele>805.1</ele>
        <time>2021-04-22T13:53:53.000Z</time>
      </trkpt>
      <trkpt lat="47.90205" lon="6.93472">
        <ele>806.2</ele>
        <time>2021-04-22T13:53:59.000Z</time>
      </trkpt>
      <trkpt lat="47.90215" lon="6.93467">
        <ele>807.7</ele>
        <time>2021-04-22T13:54:07.000Z</time>
      </trkpt>
      <trkpt lat="47.90224" lon="6.93461">
        <ele>809.6</ele>
        <time>2021-04-22T13:54:14.000Z</time>
      </trkpt>
      <trkpt lat="47.90233" lon="6.93456">
        <ele>811.5</ele>
        <time>2021-04-22T13:54:21.000Z</time>
      </trkpt>
      <trkpt lat="47.90242" lon="6.93452">
        <ele>813.1</ele>
        <time>2021-04-22T13:54:28.000Z</time>
      </trkpt>
      <trkpt lat="47.90251" lon="6.93448">
        <ele>814.6</ele>
        <time>2021-04-22T13:54:35.000Z</time>
      </trkpt>
      <trkpt lat="47.9026" lon="6.93442">
        <ele>815.7</ele>
        <time>2021-04-22T13:54:45.000Z</time>
      </trkpt>
      <trkpt lat="47.90268" lon="6.93436">
        <ele>817</ele>
        <time>2021-04-22T13:54:50.000Z</time>
      </trkpt>
      <trkpt lat="47.90277" lon="6.93429">
        <ele>818</ele>
        <time>2021-04-22T13:54:57.000Z</time>
      </trkpt>
      <trkpt lat="47.90286" lon="6.93422">
        <ele>818.7</ele>
        <time>2021-04-22T13:55:04.000Z</time>
      </trkpt>
      <trkpt lat="47.90295" lon="6.93417">
        <ele>819</ele>
        <time>2021-04-22T13:55:11.000Z</time>
      </trkpt>
      <trkpt lat="47.90303" lon="6.93412">
        <ele>819.6</ele>
        <time>2021-04-22T13:55:17.000Z</time>
      </trkpt>
      <trkpt lat="47.90312" lon="6.93412">
        <ele>818.4</ele>
        <time>2021-04-22T13:55:25.000Z</time>
      </trkpt>
      <trkpt lat="47.90322" lon="6.93413">
        <ele>816.4</ele>
        <time>2021-04-22T13:55:31.000Z</time>
      </trkpt>
      <trkpt lat="47.90331" lon="6.93408">
        <ele>817</ele>
        <time>2021-04-22T13:55:38.000Z</time>
      </trkpt>
      <trkpt lat="47.9034" lon="6.93401">
        <ele>820.3</ele>
        <time>2021-04-22T13:55:45.000Z</time>
      </trkpt>
      <trkpt lat="47.90349" lon="6.93396">
        <ele>823.6</ele>
        <time>2021-04-22T13:55:53.000Z</time>
      </trkpt>
      <trkpt lat="47.90359" lon="6.93391">
        <ele>826.3</ele>
        <time>2021-04-22T13:55:58.000Z</time>
      </trkpt>
      <trkpt lat="47.90367" lon="6.93395">
        <ele>825.8</ele>
        <time>2021-04-22T13:56:05.000Z</time>
      </trkpt>
      <trkpt lat="47.90376" lon="6.93399">
        <ele>825.1</ele>
        <time>2021-04-22T13:56:12.000Z</time>
      </trkpt>
      <trkpt lat="47.90386" lon="6.934">
        <ele>826</ele>
        <time>2021-04-22T13:56:17.000Z</time>
      </trkpt>
      <trkpt lat="47.90393" lon="6.93408">
        <ele>824.4</ele>
        <time>2021-04-22T13:56:24.000Z</time>
      </trkpt>
      <trkpt lat="47.90402" lon="6.93413">
        <ele>824</ele>
        <time>2021-04-22T13:56:30.000Z</time>
      </trkpt>
      <trkpt lat="47.90411" lon="6.9342">
        <ele>823.4</ele>
        <time>2021-04-22T13:56:36.000Z</time>
      </trkpt>
      <trkpt lat="47.90418" lon="6.93429">
        <ele>823.1</ele>
        <time>2021-04-22T13:56:43.000Z</time>
      </trkpt>
      <trkpt lat="47.90423" lon="6.93442">
        <ele>822.7</ele>
        <time>2021-04-22T13:57:00.000Z</time>
      </trkpt>
      <trkpt lat="47.90428" lon="6.93453">
        <ele>823.1</ele>
        <time>2021-04-22T13:57:07.000Z</time>
      </trkpt>
      <trkpt lat="47.90434" lon="6.93464">
        <ele>823.4</ele>
        <time>2021-04-22T13:57:16.000Z</time>
      </trkpt>
      <trkpt lat="47.90439" lon="6.93476">
        <ele>823.7</ele>
        <time>2021-04-22T13:57:23.000Z</time>
      </trkpt>
      <trkpt lat="47.90444" lon="6.93489">
        <ele>824.1</ele>
        <time>2021-04-22T13:57:31.000Z</time>
      </trkpt>
      <trkpt lat="47.9045" lon="6.93501">
        <ele>825.6</ele>
        <time>2021-04-22T13:57:38.000Z</time>
      </trkpt>
      <trkpt lat="47.90456" lon="6.93514">
        <ele>826.9</ele>
        <time>2021-04-22T13:57:45.000Z</time>
      </trkpt>
      <trkpt lat="47.90459" lon="6.93527">
        <ele>826.7</ele>
        <time>2021-04-22T13:57:52.000Z</time>
      </trkpt>
      <trkpt lat="47.90461" lon="6.93542">
        <ele>825.8</ele>
        <time>2021-04-22T13:57:59.000Z</time>
      </trkpt>
      <trkpt lat="47.90463" lon="6.93556">
        <ele>825</ele>
        <time>2021-04-22T13:58:05.000Z</time>
      </trkpt>
      <trkpt lat="47.90466" lon="6.9357">
        <ele>824.7</ele>
        <time>2021-04-22T13:58:12.000Z</time>
      </trkpt>
      <trkpt lat="47.90468" lon="6.93585">
        <ele>824.2</ele>
        <time>2021-04-22T13:58:20.000Z</time>
      </trkpt>
      <trkpt lat="47.90466" lon="6.93599">
        <ele>822</ele>
        <time>2021-04-22T13:58:26.000Z</time>
      </trkpt>
      <trkpt lat="47.90463" lon="6.93614">
        <ele>819.4</ele>
        <time>2021-04-22T13:58:32.000Z</time>
      </trkpt>
      <trkpt lat="47.90463" lon="6.93629">
        <ele>818.6</ele>
        <time>2021-04-22T13:58:38.000Z</time>
      </trkpt>
      <trkpt lat="47.90466" lon="6.93644">
        <ele>818.9</ele>
        <time>2021-04-22T13:58:46.000Z</time>
      </trkpt>
      <trkpt lat="47.90469" lon="6.93657">
        <ele>819.5</ele>
        <time>2021-04-22T13:58:54.000Z</time>
      </trkpt>
      <trkpt lat="47.90469" lon="6.93671">
        <ele>818.3</ele>
        <time>2021-04-22T13:59:03.000Z</time>
      </trkpt>
      <trkpt lat="47.90468" lon="6.93686">
        <ele>815.7</ele>
        <time>2021-04-22T13:59:09.000Z</time>
      </trkpt>
      <trkpt lat="47.90469" lon="6.937">
        <ele>814.4</ele>
        <time>2021-04-22T13:59:16.000Z</time>
      </trkpt>
      <trkpt lat="47.90469" lon="6.93714">
        <ele>812</ele>
        <time>2021-04-22T13:59:22.000Z</time>
      </trkpt>
      <trkpt lat="47.90467" lon="6.93727">
        <ele>809.1</ele>
        <time>2021-04-22T13:59:29.000Z</time>
      </trkpt>
      <trkpt lat="47.9047" lon="6.9374">
        <ele>809.1</ele>
        <time>2021-04-22T14:00:17.000Z</time>
      </trkpt>
      <trkpt lat="47.90476" lon="6.93754">
        <ele>810.1</ele>
        <time>2021-04-22T14:00:24.000Z</time>
      </trkpt>
      <trkpt lat="47.90482" lon="6.93765">
        <ele>810.9</ele>
        <time>2021-04-22T14:00:31.000Z</time>
      </trkpt>
      <trkpt lat="47.90488" lon="6.93776">
        <ele>812.2</ele>
        <time>2021-04-22T14:00:36.000Z</time>
      </trkpt>
      <trkpt lat="47.90496" lon="6.93784">
        <ele>814.7</ele>
        <time>2021-04-22T14:00:43.000Z</time>
      </trkpt>
      <trkpt lat="47.90503" lon="6.93793">
        <ele>816.7</ele>
        <time>2021-04-22T14:00:50.000Z</time>
      </trkpt>
      <trkpt lat="47.90511" lon="6.938">
        <ele>818.6</ele>
        <time>2021-04-22T14:00:57.000Z</time>
      </trkpt>
      <trkpt lat="47.90519" lon="6.9381">
        <ele>820</ele>
        <time>2021-04-22T14:01:05.000Z</time>
      </trkpt>
      <trkpt lat="47.90526" lon="6.9382">
        <ele>821.5</ele>
        <time>2021-04-22T14:01:12.000Z</time>
      </trkpt>
      <trkpt lat="47.90534" lon="6.93828">
        <ele>823.1</ele>
        <time>2021-04-22T14:01:24.000Z</time>
      </trkpt>
      <trkpt lat="47.90542" lon="6.93835">
        <ele>825.2</ele>
        <time>2021-04-22T14:01:48.000Z</time>
      </trkpt>
      <trkpt lat="47.90548" lon="6.93845">
        <ele>825</ele>
        <time>2021-04-22T14:01:56.000Z</time>
      </trkpt>
      <trkpt lat="47.90555" lon="6.93858">
        <ele>824.1</ele>
        <time>2021-04-22T14:02:03.000Z</time>
      </trkpt>
      <trkpt lat="47.90561" lon="6.93867">
        <ele>824.4</ele>
        <time>2021-04-22T14:02:12.000Z</time>
      </trkpt>
      <trkpt lat="47.90567" lon="6.93879">
        <ele>823.3</ele>
        <time>2021-04-22T14:02:19.000Z</time>
      </trkpt>
      <trkpt lat="47.90574" lon="6.93889">
        <ele>823.4</ele>
        <time>2021-04-22T14:02:43.000Z</time>
      </trkpt>
      <trkpt lat="47.90582" lon="6.93897">
        <ele>824.3</ele>
        <time>2021-04-22T14:02:50.000Z</time>
      </trkpt>
      <trkpt lat="47.9059" lon="6.93906">
        <ele>824.4</ele>
        <time>2021-04-22T14:02:57.000Z</time>
      </trkpt>
      <trkpt lat="47.90599" lon="6.9391">
        <ele>826.6</ele>
        <time>2021-04-22T14:03:03.000Z</time>
      </trkpt>
      <trkpt lat="47.90607" lon="6.93919">
        <ele>827.4</ele>
        <time>2021-04-22T14:03:09.000Z</time>
      </trkpt>
      <trkpt lat="47.90614" lon="6.93928">
        <ele>828.8</ele>
        <time>2021-04-22T14:03:17.000Z</time>
      </trkpt>
      <trkpt lat="47.9062" lon="6.93941">
        <ele>829</ele>
        <time>2021-04-22T14:03:24.000Z</time>
      </trkpt>
      <trkpt lat="47.90623" lon="6.93954">
        <ele>828.7</ele>
        <time>2021-04-22T14:03:30.000Z</time>
      </trkpt>
      <trkpt lat="47.90626" lon="6.93968">
        <ele>828.2</ele>
        <time>2021-04-22T14:03:37.000Z</time>
      </trkpt>
      <trkpt lat="47.9063" lon="6.93981">
        <ele>828.5</ele>
        <time>2021-04-22T14:03:43.000Z</time>
      </trkpt>
      <trkpt lat="47.90632" lon="6.93995">
        <ele>827.6</ele>
        <time>2021-04-22T14:03:51.000Z</time>
      </trkpt>
      <trkpt lat="47.90635" lon="6.9401">
        <ele>827.3</ele>
        <time>2021-04-22T14:03:58.000Z</time>
      </trkpt>
      <trkpt lat="47.9064" lon="6.94023">
        <ele>828</ele>
        <time>2021-04-22T14:04:07.000Z</time>
      </trkpt>
      <trkpt lat="47.90645" lon="6.94035">
        <ele>829.2</ele>
        <time>2021-04-22T14:04:12.000Z</time>
      </trkpt>
      <trkpt lat="47.90649" lon="6.9405">
        <ele>829.5</ele>
        <time>2021-04-22T14:04:21.000Z</time>
      </trkpt>
      <trkpt lat="47.90653" lon="6.94062">
        <ele>830.4</ele>
        <time>2021-04-22T14:04:27.000Z</time>
      </trkpt>
      <trkpt lat="47.90656" lon="6.94075">
        <ele>830</ele>
        <time>2021-04-22T14:04:33.000Z</time>
      </trkpt>
      <trkpt lat="47.90655" lon="6.9409">
        <ele>828.1</ele>
        <time>2021-04-22T14:04:41.000Z</time>
      </trkpt>
      <trkpt lat="47.90656" lon="6.94105">
        <ele>827.3</ele>
        <time>2021-04-22T14:04:50.000Z</time>
      </trkpt>
      <trkpt lat="47.90658" lon="6.9412">
        <ele>826.9</ele>
        <time>2021-04-22T14:04:56.000Z</time>
      </trkpt>
      <trkpt lat="47.90662" lon="6.94133">
        <ele>827.8</ele>
        <time>2021-04-22T14:05:04.000Z</time>
      </trkpt>
      <trkpt lat="47.90665" lon="6.94147">
        <ele>828.1</ele>
        <time>2021-04-22T14:05:12.000Z</time>
      </trkpt>
      <trkpt lat="47.90668" lon="6.94159">
        <ele>828.5</ele>
        <time>2021-04-22T14:05:17.000Z</time>
      </trkpt>
      <trkpt lat="47.9067" lon="6.94172">
        <ele>828.2</ele>
        <time>2021-04-22T14:05:24.000Z</time>
      </trkpt>
      <trkpt lat="47.90674" lon="6.94187">
        <ele>828.4</ele>
        <time>2021-04-22T14:05:33.000Z</time>
      </trkpt>
      <trkpt lat="47.90678" lon="6.94199">
        <ele>829.2</ele>
        <time>2021-04-22T14:05:42.000Z</time>
      </trkpt>
      <trkpt lat="47.90684" lon="6.94211">
        <ele>830.9</ele>
        <time>2021-04-22T14:05:49.000Z</time>
      </trkpt>
      <trkpt lat="47.9069" lon="6.94222">
        <ele>832.8</ele>
        <time>2021-04-22T14:05:58.000Z</time>
      </trkpt>
      <trkpt lat="47.90698" lon="6.94232">
        <ele>835.6</ele>
        <time>2021-04-22T14:06:07.000Z</time>
      </trkpt>
      <trkpt lat="47.90705" lon="6.94242">
        <ele>837.8</ele>
        <time>2021-04-22T14:06:13.000Z</time>
      </trkpt>
      <trkpt lat="47.90709" lon="6.94255">
        <ele>837.8</ele>
        <time>2021-04-22T14:06:22.000Z</time>
      </trkpt>
      <trkpt lat="47.90713" lon="6.94268">
        <ele>837.6</ele>
        <time>2021-04-22T14:06:31.000Z</time>
      </trkpt>
      <trkpt lat="47.90718" lon="6.94283">
        <ele>836.9</ele>
        <time>2021-04-22T14:06:40.000Z</time>
      </trkpt>
      <trkpt lat="47.90724" lon="6.94294">
        <ele>837.9</ele>
        <time>2021-04-22T14:06:46.000Z</time>
      </trkpt>
      <trkpt lat="47.90728" lon="6.94307">
        <ele>837.2</ele>
        <time>2021-04-22T14:06:55.000Z</time>
      </trkpt>
      <trkpt lat="47.90732" lon="6.94322">
        <ele>836.4</ele>
        <time>2021-04-22T14:07:03.000Z</time>
      </trkpt>
      <trkpt lat="47.90734" lon="6.94336">
        <ele>834.9</ele>
        <time>2021-04-22T14:07:10.000Z</time>
      </trkpt>
      <trkpt lat="47.90739" lon="6.94348">
        <ele>834.1</ele>
        <time>2021-04-22T14:07:18.000Z</time>
      </trkpt>
      <trkpt lat="47.90747" lon="6.94356">
        <ele>835.9</ele>
        <time>2021-04-22T14:07:24.000Z</time>
      </trkpt>
      <trkpt lat="47.90754" lon="6.94368">
        <ele>835</ele>
        <time>2021-04-22T14:07:30.000Z</time>
      </trkpt>
      <trkpt lat="47.90762" lon="6.94379">
        <ele>833.9</ele>
        <time>2021-04-22T14:07:38.000Z</time>
      </trkpt>
      <trkpt lat="47.90767" lon="6.94392">
        <ele>831.7</ele>
        <time>2021-04-22T14:07:43.000Z</time>
      </trkpt>
      <trkpt lat="47.90773" lon="6.94404">
        <ele>830.2</ele>
        <time>2021-04-22T14:07:50.000Z</time>
      </trkpt>
      <trkpt lat="47.90781" lon="6.94413">
        <ele>829.3</ele>
        <time>2021-04-22T14:07:56.000Z</time>
      </trkpt>
      <trkpt lat="47.90789" lon="6.94421">
        <ele>829.2</ele>
        <time>2021-04-22T14:08:04.000Z</time>
      </trkpt>
      <trkpt lat="47.90797" lon="6.94425">
        <ele>829.8</ele>
        <time>2021-04-22T14:08:13.000Z</time>
      </trkpt>
      <trkpt lat="47.90807" lon="6.94426">
        <ele>831.3</ele>
        <time>2021-04-22T14:08:21.000Z</time>
      </trkpt>
      <trkpt lat="47.90816" lon="6.94428">
        <ele>832.5</ele>
        <time>2021-04-22T14:08:28.000Z</time>
      </trkpt>
      <trkpt lat="47.90824" lon="6.94434">
        <ele>832.4</ele>
        <time>2021-04-22T14:08:39.000Z</time>
      </trkpt>
      <trkpt lat="47.90834" lon="6.94437">
        <ele>833.2</ele>
        <time>2021-04-22T14:08:48.000Z</time>
      </trkpt>
      <trkpt lat="47.90842" lon="6.94443">
        <ele>832.4</ele>
        <time>2021-04-22T14:08:56.000Z</time>
      </trkpt>
      <trkpt lat="47.90852" lon="6.94442">
        <ele>833.6</ele>
        <time>2021-04-22T14:09:03.000Z</time>
      </trkpt>
      <trkpt lat="47.90863" lon="6.94444">
        <ele>833.9</ele>
        <time>2021-04-22T14:09:09.000Z</time>
      </trkpt>
      <trkpt lat="47.90873" lon="6.94446">
        <ele>834.2</ele>
        <time>2021-04-22T14:09:15.000Z</time>
      </trkpt>
      <trkpt lat="47.90883" lon="6.9445">
        <ele>834.1</ele>
        <time>2021-04-22T14:09:21.000Z</time>
      </trkpt>
      <trkpt lat="47.90893" lon="6.94455">
        <ele>833.8</ele>
        <time>2021-04-22T14:09:26.000Z</time>
      </trkpt>
      <trkpt lat="47.90905" lon="6.94459">
        <ele>833.9</ele>
        <time>2021-04-22T14:09:31.000Z</time>
      </trkpt>
      <trkpt lat="47.90913" lon="6.94463">
        <ele>833.6</ele>
        <time>2021-04-22T14:09:36.000Z</time>
      </trkpt>
      <trkpt lat="47.90923" lon="6.9447">
        <ele>832.8</ele>
        <time>2021-04-22T14:09:42.000Z</time>
      </trkpt>
      <trkpt lat="47.90932" lon="6.94474">
        <ele>832.5</ele>
        <time>2021-04-22T14:09:48.000Z</time>
      </trkpt>
      <trkpt lat="47.90941" lon="6.94478">
        <ele>832.2</ele>
        <time>2021-04-22T14:09:54.000Z</time>
      </trkpt>
      <trkpt lat="47.9095" lon="6.94481">
        <ele>832.2</ele>
        <time>2021-04-22T14:10:00.000Z</time>
      </trkpt>
      <trkpt lat="47.90959" lon="6.94485">
        <ele>831.8</ele>
        <time>2021-04-22T14:10:07.000Z</time>
      </trkpt>
      <trkpt lat="47.90969" lon="6.94486">
        <ele>832.4</ele>
        <time>2021-04-22T14:10:15.000Z</time>
      </trkpt>
      <trkpt lat="47.90979" lon="6.94482">
        <ele>834.1</ele>
        <time>2021-04-22T14:10:23.000Z</time>
      </trkpt>
      <trkpt lat="47.90989" lon="6.94483">
        <ele>834.7</ele>
        <time>2021-04-22T14:10:30.000Z</time>
      </trkpt>
      <trkpt lat="47.90999" lon="6.94483">
        <ele>835.4</ele>
        <time>2021-04-22T14:10:36.000Z</time>
      </trkpt>
      <trkpt lat="47.91008" lon="6.94485">
        <ele>835.7</ele>
        <time>2021-04-22T14:10:44.000Z</time>
      </trkpt>
      <trkpt lat="47.91018" lon="6.94488">
        <ele>835.7</ele>
        <time>2021-04-22T14:10:50.000Z</time>
      </trkpt>
      <trkpt lat="47.91027" lon="6.94489">
        <ele>836</ele>
        <time>2021-04-22T14:10:56.000Z</time>
      </trkpt>
      <trkpt lat="47.91037" lon="6.94491">
        <ele>836.5</ele>
        <time>2021-04-22T14:11:02.000Z</time>
      </trkpt>
      <trkpt lat="47.91045" lon="6.94494">
        <ele>836.6</ele>
        <time>2021-04-22T14:11:10.000Z</time>
      </trkpt>
      <trkpt lat="47.91055" lon="6.94496">
        <ele>837.2</ele>
        <time>2021-04-22T14:11:17.000Z</time>
      </trkpt>
      <trkpt lat="47.91066" lon="6.94494">
        <ele>838.4</ele>
        <time>2021-04-22T14:11:24.000Z</time>
      </trkpt>
      <trkpt lat="47.91076" lon="6.94493">
        <ele>839.5</ele>
        <time>2021-04-22T14:11:31.000Z</time>
      </trkpt>
      <trkpt lat="47.91087" lon="6.94495">
        <ele>839.4</ele>
        <time>2021-04-22T14:11:38.000Z</time>
      </trkpt>
      <trkpt lat="47.91097" lon="6.945">
        <ele>837.5</ele>
        <time>2021-04-22T14:11:47.000Z</time>
      </trkpt>
      <trkpt lat="47.91106" lon="6.94499">
        <ele>836.8</ele>
        <time>2021-04-22T14:11:53.000Z</time>
      </trkpt>
      <trkpt lat="47.91115" lon="6.94498">
        <ele>835.8</ele>
        <time>2021-04-22T14:12:00.000Z</time>
      </trkpt>
      <trkpt lat="47.91125" lon="6.94496">
        <ele>835.1</ele>
        <time>2021-04-22T14:12:08.000Z</time>
      </trkpt>
      <trkpt lat="47.91134" lon="6.94496">
        <ele>834.1</ele>
        <time>2021-04-22T14:12:17.000Z</time>
      </trkpt>
      <trkpt lat="47.91144" lon="6.94498">
        <ele>832.8</ele>
        <time>2021-04-22T14:12:23.000Z</time>
      </trkpt>
      <trkpt lat="47.91151" lon="6.94489">
        <ele>833</ele>
        <time>2021-04-22T14:12:29.000Z</time>
      </trkpt>
      <trkpt lat="47.91155" lon="6.94476">
        <ele>834.1</ele>
        <time>2021-04-22T14:12:35.000Z</time>
      </trkpt>
      <trkpt lat="47.91155" lon="6.94462">
        <ele>835.7</ele>
        <time>2021-04-22T14:12:44.000Z</time>
      </trkpt>
      <trkpt lat="47.91147" lon="6.94455">
        <ele>837.6</ele>
        <time>2021-04-22T14:14:55.000Z</time>
      </trkpt>
      <trkpt lat="47.91138" lon="6.94456">
        <ele>838.7</ele>
        <time>2021-04-22T14:16:22.000Z</time>
      </trkpt>
      <trkpt lat="47.91126" lon="6.94443">
        <ele>842.3</ele>
        <time>2021-04-22T14:16:27.000Z</time>
      </trkpt>
      <trkpt lat="47.91105" lon="6.94382">
        <ele>853.2</ele>
        <time>2021-04-22T14:16:32.000Z</time>
      </trkpt>
      <trkpt lat="47.91116" lon="6.94408">
        <ele>848.4</ele>
        <time>2021-04-22T14:16:38.000Z</time>
      </trkpt>
      <trkpt lat="47.91134" lon="6.94435">
        <ele>842.1</ele>
        <time>2021-04-22T14:16:43.000Z</time>
      </trkpt>
      <trkpt lat="47.91141" lon="6.94449">
        <ele>839.2</ele>
        <time>2021-04-22T14:16:48.000Z</time>
      </trkpt>
      <trkpt lat="47.91153" lon="6.94457">
        <ele>836.6</ele>
        <time>2021-04-22T14:17:05.000Z</time>
      </trkpt>
      <trkpt lat="47.91151" lon="6.94474">
        <ele>834.9</ele>
        <time>2021-04-22T14:19:18.000Z</time>
      </trkpt>
      <trkpt lat="47.91157" lon="6.94485">
        <ele>832.8</ele>
        <time>2021-04-22T14:19:23.000Z</time>
      </trkpt>
      <trkpt lat="47.91157" lon="6.94501">
        <ele>830.9</ele>
        <time>2021-04-22T14:19:28.000Z</time>
      </trkpt>
      <trkpt lat="47.91152" lon="6.94514">
        <ele>829.3</ele>
        <time>2021-04-22T14:19:35.000Z</time>
      </trkpt>
      <trkpt lat="47.91151" lon="6.94529">
        <ele>827.1</ele>
        <time>2021-04-22T14:19:43.000Z</time>
      </trkpt>
      <trkpt lat="47.91153" lon="6.9457">
        <ele>820.4</ele>
        <time>2021-04-22T14:19:48.000Z</time>
      </trkpt>
      <trkpt lat="47.91143" lon="6.94574">
        <ele>819.9</ele>
        <time>2021-04-22T14:19:55.000Z</time>
      </trkpt>
      <trkpt lat="47.91134" lon="6.94577">
        <ele>819.5</ele>
        <time>2021-04-22T14:20:04.000Z</time>
      </trkpt>
      <trkpt lat="47.91126" lon="6.94584">
        <ele>818.4</ele>
        <time>2021-04-22T14:20:10.000Z</time>
      </trkpt>
      <trkpt lat="47.91122" lon="6.94597">
        <ele>816.6</ele>
        <time>2021-04-22T14:20:17.000Z</time>
      </trkpt>
      <trkpt lat="47.91121" lon="6.9461">
        <ele>814.6</ele>
        <time>2021-04-22T14:20:24.000Z</time>
      </trkpt>
      <trkpt lat="47.91121" lon="6.94626">
        <ele>812.3</ele>
        <time>2021-04-22T14:20:32.000Z</time>
      </trkpt>
      <trkpt lat="47.91121" lon="6.94641">
        <ele>810.1</ele>
        <time>2021-04-22T14:20:39.000Z</time>
      </trkpt>
      <trkpt lat="47.91119" lon="6.94656">
        <ele>807.9</ele>
        <time>2021-04-22T14:20:47.000Z</time>
      </trkpt>
      <trkpt lat="47.91118" lon="6.94669">
        <ele>806.2</ele>
        <time>2021-04-22T14:20:54.000Z</time>
      </trkpt>
      <trkpt lat="47.91118" lon="6.94685">
        <ele>806.2</ele>
        <time>2021-04-22T14:21:02.000Z</time>
      </trkpt>
      <trkpt lat="47.91116" lon="6.94699">
        <ele>806.2</ele>
        <time>2021-04-22T14:21:09.000Z</time>
      </trkpt>
      <trkpt lat="47.91114" lon="6.94714">
        <ele>806.2</ele>
        <time>2021-04-22T14:21:16.000Z</time>
      </trkpt>
      <trkpt lat="47.91112" lon="6.94728">
        <ele>806.2</ele>
        <time>2021-04-22T14:21:23.000Z</time>
      </trkpt>
      <trkpt lat="47.91111" lon="6.94743">
        <ele>806.3</ele>
        <time>2021-04-22T14:21:30.000Z</time>
      </trkpt>
      <trkpt lat="47.9111" lon="6.94758">
        <ele>806.7</ele>
        <time>2021-04-22T14:21:37.000Z</time>
      </trkpt>
      <trkpt lat="47.91108" lon="6.94771">
        <ele>807.5</ele>
        <time>2021-04-22T14:21:44.000Z</time>
      </trkpt>
      <trkpt lat="47.91105" lon="6.94786">
        <ele>808.4</ele>
        <time>2021-04-22T14:21:51.000Z</time>
      </trkpt>
      <trkpt lat="47.91106" lon="6.948">
        <ele>809.1</ele>
        <time>2021-04-22T14:21:58.000Z</time>
      </trkpt>
      <trkpt lat="47.91109" lon="6.94814">
        <ele>809.6</ele>
        <time>2021-04-22T14:22:05.000Z</time>
      </trkpt>
      <trkpt lat="47.91112" lon="6.94828">
        <ele>810</ele>
        <time>2021-04-22T14:22:12.000Z</time>
      </trkpt>
      <trkpt lat="47.91113" lon="6.94843">
        <ele>811.1</ele>
        <time>2021-04-22T14:22:19.000Z</time>
      </trkpt>
      <trkpt lat="47.91117" lon="6.94857">
        <ele>812.1</ele>
        <time>2021-04-22T14:22:28.000Z</time>
      </trkpt>
      <trkpt lat="47.9112" lon="6.9487">
        <ele>812.9</ele>
        <time>2021-04-22T14:22:34.000Z</time>
      </trkpt>
      <trkpt lat="47.91126" lon="6.94883">
        <ele>813.4</ele>
        <time>2021-04-22T14:22:41.000Z</time>
      </trkpt>
      <trkpt lat="47.9113" lon="6.94895">
        <ele>813.7</ele>
        <time>2021-04-22T14:22:48.000Z</time>
      </trkpt>
      <trkpt lat="47.91136" lon="6.94907">
        <ele>813.8</ele>
        <time>2021-04-22T14:22:55.000Z</time>
      </trkpt>
      <trkpt lat="47.91141" lon="6.94919">
        <ele>813.9</ele>
        <time>2021-04-22T14:23:02.000Z</time>
      </trkpt>
      <trkpt lat="47.91146" lon="6.9493">
        <ele>814.1</ele>
        <time>2021-04-22T14:23:09.000Z</time>
      </trkpt>
      <trkpt lat="47.9115" lon="6.94944">
        <ele>814.6</ele>
        <time>2021-04-22T14:23:17.000Z</time>
      </trkpt>
      <trkpt lat="47.91154" lon="6.94957">
        <ele>815</ele>
        <time>2021-04-22T14:23:25.000Z</time>
      </trkpt>
      <trkpt lat="47.91158" lon="6.9497">
        <ele>815.3</ele>
        <time>2021-04-22T14:23:32.000Z</time>
      </trkpt>
      <trkpt lat="47.91162" lon="6.94982">
        <ele>815.6</ele>
        <time>2021-04-22T14:23:39.000Z</time>
      </trkpt>
      <trkpt lat="47.91164" lon="6.94996">
        <ele>816.1</ele>
        <time>2021-04-22T14:23:46.000Z</time>
      </trkpt>
      <trkpt lat="47.91166" lon="6.95011">
        <ele>817</ele>
        <time>2021-04-22T14:23:53.000Z</time>
      </trkpt>
      <trkpt lat="47.91169" lon="6.95025">
        <ele>817.7</ele>
        <time>2021-04-22T14:24:01.000Z</time>
      </trkpt>
      <trkpt lat="47.91171" lon="6.95039">
        <ele>818.3</ele>
        <time>2021-04-22T14:24:08.000Z</time>
      </trkpt>
      <trkpt lat="47.91174" lon="6.95054">
        <ele>819</ele>
        <time>2021-04-22T14:24:15.000Z</time>
      </trkpt>
      <trkpt lat="47.91176" lon="6.95068">
        <ele>819.7</ele>
        <time>2021-04-22T14:24:21.000Z</time>
      </trkpt>
      <trkpt lat="47.91176" lon="6.95082">
        <ele>820.9</ele>
        <time>2021-04-22T14:24:28.000Z</time>
      </trkpt>
      <trkpt lat="47.91177" lon="6.95096">
        <ele>820.8</ele>
        <time>2021-04-22T14:24:37.000Z</time>
      </trkpt>
      <trkpt lat="47.91176" lon="6.95111">
        <ele>820.9</ele>
        <time>2021-04-22T14:24:44.000Z</time>
      </trkpt>
      <trkpt lat="47.91176" lon="6.95126">
        <ele>820.8</ele>
        <time>2021-04-22T14:24:51.000Z</time>
      </trkpt>
      <trkpt lat="47.91176" lon="6.95141">
        <ele>820.9</ele>
        <time>2021-04-22T14:24:59.000Z</time>
      </trkpt>
      <trkpt lat="47.91171" lon="6.95153">
        <ele>821.5</ele>
        <time>2021-04-22T14:25:06.000Z</time>
      </trkpt>
      <trkpt lat="47.91165" lon="6.95163">
        <ele>822.2</ele>
        <time>2021-04-22T14:25:13.000Z</time>
      </trkpt>
      <trkpt lat="47.91158" lon="6.95174">
        <ele>821.6</ele>
        <time>2021-04-22T14:25:26.000Z</time>
      </trkpt>
      <trkpt lat="47.91152" lon="6.95185">
        <ele>820.6</ele>
        <time>2021-04-22T14:25:33.000Z</time>
      </trkpt>
      <trkpt lat="47.91144" lon="6.95195">
        <ele>819.8</ele>
        <time>2021-04-22T14:25:41.000Z</time>
      </trkpt>
      <trkpt lat="47.91136" lon="6.95204">
        <ele>819.1</ele>
        <time>2021-04-22T14:25:49.000Z</time>
      </trkpt>
      <trkpt lat="47.91129" lon="6.95212">
        <ele>818.7</ele>
        <time>2021-04-22T14:25:56.000Z</time>
      </trkpt>
      <trkpt lat="47.91121" lon="6.9522">
        <ele>818.1</ele>
        <time>2021-04-22T14:26:04.000Z</time>
      </trkpt>
      <trkpt lat="47.91115" lon="6.95232">
        <ele>816.7</ele>
        <time>2021-04-22T14:26:11.000Z</time>
      </trkpt>
      <trkpt lat="47.91112" lon="6.95245">
        <ele>815.1</ele>
        <time>2021-04-22T14:26:17.000Z</time>
      </trkpt>
      <trkpt lat="47.91109" lon="6.95259">
        <ele>812.7</ele>
        <time>2021-04-22T14:26:28.000Z</time>
      </trkpt>
      <trkpt lat="47.91106" lon="6.95273">
        <ele>809.9</ele>
        <time>2021-04-22T14:26:35.000Z</time>
      </trkpt>
      <trkpt lat="47.91102" lon="6.95286">
        <ele>807.5</ele>
        <time>2021-04-22T14:26:45.000Z</time>
      </trkpt>
      <trkpt lat="47.91097" lon="6.95297">
        <ele>805.9</ele>
        <time>2021-04-22T14:26:51.000Z</time>
      </trkpt>
      <trkpt lat="47.9109" lon="6.95309">
        <ele>804.7</ele>
        <time>2021-04-22T14:26:58.000Z</time>
      </trkpt>
      <trkpt lat="47.91083" lon="6.95318">
        <ele>803.9</ele>
        <time>2021-04-22T14:27:05.000Z</time>
      </trkpt>
      <trkpt lat="47.91077" lon="6.95329">
        <ele>803.4</ele>
        <time>2021-04-22T14:27:12.000Z</time>
      </trkpt>
      <trkpt lat="47.91072" lon="6.95339">
        <ele>802.7</ele>
        <time>2021-04-22T14:27:19.000Z</time>
      </trkpt>
      <trkpt lat="47.91066" lon="6.95349">
        <ele>801.9</ele>
        <time>2021-04-22T14:27:26.000Z</time>
      </trkpt>
      <trkpt lat="47.91059" lon="6.95359">
        <ele>801.5</ele>
        <time>2021-04-22T14:27:33.000Z</time>
      </trkpt>
      <trkpt lat="47.91051" lon="6.95368">
        <ele>801.5</ele>
        <time>2021-04-22T14:27:41.000Z</time>
      </trkpt>
      <trkpt lat="47.91045" lon="6.95378">
        <ele>800.7</ele>
        <time>2021-04-22T14:27:48.000Z</time>
      </trkpt>
      <trkpt lat="47.91038" lon="6.95388">
        <ele>800.4</ele>
        <time>2021-04-22T14:27:54.000Z</time>
      </trkpt>
      <trkpt lat="47.91029" lon="6.95397">
        <ele>800.7</ele>
        <time>2021-04-22T14:28:01.000Z</time>
      </trkpt>
      <trkpt lat="47.91022" lon="6.95406">
        <ele>800.7</ele>
        <time>2021-04-22T14:28:08.000Z</time>
      </trkpt>
      <trkpt lat="47.91014" lon="6.95416">
        <ele>800.3</ele>
        <time>2021-04-22T14:28:16.000Z</time>
      </trkpt>
      <trkpt lat="47.91008" lon="6.95428">
        <ele>800.2</ele>
        <time>2021-04-22T14:28:23.000Z</time>
      </trkpt>
      <trkpt lat="47.91002" lon="6.95439">
        <ele>800.1</ele>
        <time>2021-04-22T14:28:30.000Z</time>
      </trkpt>
      <trkpt lat="47.90996" lon="6.9545">
        <ele>799.7</ele>
        <time>2021-04-22T14:28:38.000Z</time>
      </trkpt>
      <trkpt lat="47.90988" lon="6.95457">
        <ele>800.2</ele>
        <time>2021-04-22T14:28:47.000Z</time>
      </trkpt>
      <trkpt lat="47.90981" lon="6.95467">
        <ele>800.1</ele>
        <time>2021-04-22T14:28:53.000Z</time>
      </trkpt>
      <trkpt lat="47.90974" lon="6.95478">
        <ele>799.9</ele>
        <time>2021-04-22T14:28:59.000Z</time>
      </trkpt>
      <trkpt lat="47.90968" lon="6.9549">
        <ele>799.5</ele>
        <time>2021-04-22T14:29:06.000Z</time>
      </trkpt>
      <trkpt lat="47.90959" lon="6.95507">
        <ele>798.7</ele>
        <time>2021-04-22T14:29:20.000Z</time>
      </trkpt>
      <trkpt lat="47.90954" lon="6.95518">
        <ele>797.5</ele>
        <time>2021-04-22T14:29:26.000Z</time>
      </trkpt>
      <trkpt lat="47.90947" lon="6.95529">
        <ele>796.8</ele>
        <time>2021-04-22T14:29:33.000Z</time>
      </trkpt>
      <trkpt lat="47.90938" lon="6.95543">
        <ele>796.1</ele>
        <time>2021-04-22T14:29:44.000Z</time>
      </trkpt>
      <trkpt lat="47.9093" lon="6.95558">
        <ele>795.5</ele>
        <time>2021-04-22T14:29:58.000Z</time>
      </trkpt>
      <trkpt lat="47.90923" lon="6.95571">
        <ele>794.6</ele>
        <time>2021-04-22T14:30:10.000Z</time>
      </trkpt>
      <trkpt lat="47.90915" lon="6.95587">
        <ele>793.5</ele>
        <time>2021-04-22T14:30:22.000Z</time>
      </trkpt>
      <trkpt lat="47.90909" lon="6.95605">
        <ele>791.2</ele>
        <time>2021-04-22T14:30:34.000Z</time>
      </trkpt>
      <trkpt lat="47.90904" lon="6.95621">
        <ele>788.9</ele>
        <time>2021-04-22T14:30:39.000Z</time>
      </trkpt>
      <trkpt lat="47.90897" lon="6.95638">
        <ele>787.1</ele>
        <time>2021-04-22T14:30:59.000Z</time>
      </trkpt>
      <trkpt lat="47.90892" lon="6.95653">
        <ele>785.2</ele>
        <time>2021-04-22T14:31:14.000Z</time>
      </trkpt>
      <trkpt lat="47.90887" lon="6.95669">
        <ele>783.3</ele>
        <time>2021-04-22T14:31:26.000Z</time>
      </trkpt>
      <trkpt lat="47.90881" lon="6.95686">
        <ele>781.2</ele>
        <time>2021-04-22T14:31:37.000Z</time>
      </trkpt>
      <trkpt lat="47.90876" lon="6.95706">
        <ele>778.7</ele>
        <time>2021-04-22T14:31:47.000Z</time>
      </trkpt>
      <trkpt lat="47.90876" lon="6.95724">
        <ele>775.6</ele>
        <time>2021-04-22T14:31:59.000Z</time>
      </trkpt>
      <trkpt lat="47.90869" lon="6.95747">
        <ele>773.6</ele>
        <time>2021-04-22T14:32:11.000Z</time>
      </trkpt>
      <trkpt lat="47.90864" lon="6.9576">
        <ele>771.9</ele>
        <time>2021-04-22T14:32:16.000Z</time>
      </trkpt>
      <trkpt lat="47.90857" lon="6.95773">
        <ele>770.3</ele>
        <time>2021-04-22T14:32:22.000Z</time>
      </trkpt>
      <trkpt lat="47.90853" lon="6.95786">
        <ele>768.4</ele>
        <time>2021-04-22T14:32:28.000Z</time>
      </trkpt>
      <trkpt lat="47.90843" lon="6.95798">
        <ele>768.5</ele>
        <time>2021-04-22T14:33:26.000Z</time>
      </trkpt>
      <trkpt lat="47.9083" lon="6.95806">
        <ele>770.7</ele>
        <time>2021-04-22T14:33:39.000Z</time>
      </trkpt>
      <trkpt lat="47.90822" lon="6.95815">
        <ele>770.7</ele>
        <time>2021-04-22T14:33:45.000Z</time>
      </trkpt>
      <trkpt lat="47.90817" lon="6.95826">
        <ele>769.8</ele>
        <time>2021-04-22T14:33:51.000Z</time>
      </trkpt>
      <trkpt lat="47.90813" lon="6.9584">
        <ele>768.1</ele>
        <time>2021-04-22T14:33:59.000Z</time>
      </trkpt>
      <trkpt lat="47.90808" lon="6.95853">
        <ele>767</ele>
        <time>2021-04-22T14:34:07.000Z</time>
      </trkpt>
      <trkpt lat="47.90803" lon="6.95876">
        <ele>764</ele>
        <time>2021-04-22T14:34:24.000Z</time>
      </trkpt>
      <trkpt lat="47.90797" lon="6.95886">
        <ele>763.7</ele>
        <time>2021-04-22T14:34:30.000Z</time>
      </trkpt>
      <trkpt lat="47.90779" lon="6.95878">
        <ele>770.7</ele>
        <time>2021-04-22T14:34:42.000Z</time>
      </trkpt>
      <trkpt lat="47.90781" lon="6.95895">
        <ele>767.5</ele>
        <time>2021-04-22T14:34:56.000Z</time>
      </trkpt>
      <trkpt lat="47.90771" lon="6.9591">
        <ele>767.9</ele>
        <time>2021-04-22T14:35:08.000Z</time>
      </trkpt>
      <trkpt lat="47.90769" lon="6.95925">
        <ele>765.4</ele>
        <time>2021-04-22T14:35:13.000Z</time>
      </trkpt>
      <trkpt lat="47.90764" lon="6.95946">
        <ele>761.6</ele>
        <time>2021-04-22T14:35:18.000Z</time>
      </trkpt>
      <trkpt lat="47.90763" lon="6.95962">
        <ele>757.8</ele>
        <time>2021-04-22T14:35:23.000Z</time>
      </trkpt>
      <trkpt lat="47.90755" lon="6.9597">
        <ele>758.3</ele>
        <time>2021-04-22T14:35:39.000Z</time>
      </trkpt>
      <trkpt lat="47.90752" lon="6.95983">
        <ele>755.8</ele>
        <time>2021-04-22T14:35:47.000Z</time>
      </trkpt>
      <trkpt lat="47.90751" lon="6.95997">
        <ele>752.6</ele>
        <time>2021-04-22T14:35:55.000Z</time>
      </trkpt>
      <trkpt lat="47.9075" lon="6.96018">
        <ele>746.8</ele>
        <time>2021-04-22T14:36:26.000Z</time>
      </trkpt>
      <trkpt lat="47.90744" lon="6.96009">
        <ele>749.6</ele>
        <time>2021-04-22T14:37:14.000Z</time>
      </trkpt>
      <trkpt lat="47.90736" lon="6.96004">
        <ele>751.1</ele>
        <time>2021-04-22T14:37:21.000Z</time>
      </trkpt>
      <trkpt lat="47.90725" lon="6.96">
        <ele>752</ele>
        <time>2021-04-22T14:37:29.000Z</time>
      </trkpt>
      <trkpt lat="47.90715" lon="6.95998">
        <ele>752.5</ele>
        <time>2021-04-22T14:37:36.000Z</time>
      </trkpt>
      <trkpt lat="47.90703" lon="6.95998">
        <ele>752.5</ele>
        <time>2021-04-22T14:37:47.000Z</time>
      </trkpt>
      <trkpt lat="47.90693" lon="6.95997">
        <ele>752.8</ele>
        <time>2021-04-22T14:37:53.000Z</time>
      </trkpt>
      <trkpt lat="47.90684" lon="6.95996">
        <ele>753.2</ele>
        <time>2021-04-22T14:38:01.000Z</time>
      </trkpt>
      <trkpt lat="47.90671" lon="6.95997">
        <ele>753</ele>
        <time>2021-04-22T14:38:14.000Z</time>
      </trkpt>
      <trkpt lat="47.90679" lon="6.96015">
        <ele>748.7</ele>
        <time>2021-04-22T14:38:51.000Z</time>
      </trkpt>
      <trkpt lat="47.90687" lon="6.96022">
        <ele>746.8</ele>
        <time>2021-04-22T14:38:58.000Z</time>
      </trkpt>
      <trkpt lat="47.90695" lon="6.9603">
        <ele>744.8</ele>
        <time>2021-04-22T14:39:05.000Z</time>
      </trkpt>
      <trkpt lat="47.90704" lon="6.96037">
        <ele>743.1</ele>
        <time>2021-04-22T14:39:12.000Z</time>
      </trkpt>
      <trkpt lat="47.90711" lon="6.96045">
        <ele>740.9</ele>
        <time>2021-04-22T14:39:19.000Z</time>
      </trkpt>
      <trkpt lat="47.90702" lon="6.96056">
        <ele>738.4</ele>
        <time>2021-04-22T14:39:30.000Z</time>
      </trkpt>
      <trkpt lat="47.90693" lon="6.9606">
        <ele>737.8</ele>
        <time>2021-04-22T14:39:37.000Z</time>
      </trkpt>
      <trkpt lat="47.90678" lon="6.96061">
        <ele>738.3</ele>
        <time>2021-04-22T14:39:50.000Z</time>
      </trkpt>
      <trkpt lat="47.90663" lon="6.96059">
        <ele>739.1</ele>
        <time>2021-04-22T14:40:03.000Z</time>
      </trkpt>
      <trkpt lat="47.90653" lon="6.96063">
        <ele>737.8</ele>
        <time>2021-04-22T14:40:12.000Z</time>
      </trkpt>
      <trkpt lat="47.90658" lon="6.96075">
        <ele>735.4</ele>
        <time>2021-04-22T14:40:21.000Z</time>
      </trkpt>
      <trkpt lat="47.90663" lon="6.96086">
        <ele>733.1</ele>
        <time>2021-04-22T14:40:29.000Z</time>
      </trkpt>
      <trkpt lat="47.90663" lon="6.96102">
        <ele>729.1</ele>
        <time>2021-04-22T14:40:41.000Z</time>
      </trkpt>
      <trkpt lat="47.90655" lon="6.96107">
        <ele>727.8</ele>
        <time>2021-04-22T14:40:50.000Z</time>
      </trkpt>
      <trkpt lat="47.90645" lon="6.96108">
        <ele>727.1</ele>
        <time>2021-04-22T14:40:57.000Z</time>
      </trkpt>
      <trkpt lat="47.90636" lon="6.9611">
        <ele>726.3</ele>
        <time>2021-04-22T14:41:04.000Z</time>
      </trkpt>
      <trkpt lat="47.90627" lon="6.96117">
        <ele>724.8</ele>
        <time>2021-04-22T14:41:12.000Z</time>
      </trkpt>
      <trkpt lat="47.90629" lon="6.9613">
        <ele>721.9</ele>
        <time>2021-04-22T14:41:22.000Z</time>
      </trkpt>
      <trkpt lat="47.90634" lon="6.96143">
        <ele>719.4</ele>
        <time>2021-04-22T14:41:34.000Z</time>
      </trkpt>
      <trkpt lat="47.90637" lon="6.96156">
        <ele>716.4</ele>
        <time>2021-04-22T14:41:43.000Z</time>
      </trkpt>
      <trkpt lat="47.90632" lon="6.9617">
        <ele>713.3</ele>
        <time>2021-04-22T14:41:52.000Z</time>
      </trkpt>
      <trkpt lat="47.90629" lon="6.96183">
        <ele>709.5</ele>
        <time>2021-04-22T14:42:00.000Z</time>
      </trkpt>
      <trkpt lat="47.90639" lon="6.96186">
        <ele>708</ele>
        <time>2021-04-22T14:42:10.000Z</time>
      </trkpt>
      <trkpt lat="47.90648" lon="6.96185">
        <ele>708</ele>
        <time>2021-04-22T14:42:18.000Z</time>
      </trkpt>
      <trkpt lat="47.90657" lon="6.96182">
        <ele>708.2</ele>
        <time>2021-04-22T14:42:26.000Z</time>
      </trkpt>
      <trkpt lat="47.90667" lon="6.96179">
        <ele>708.6</ele>
        <time>2021-04-22T14:42:33.000Z</time>
      </trkpt>
      <trkpt lat="47.90676" lon="6.96176">
        <ele>708.6</ele>
        <time>2021-04-22T14:42:41.000Z</time>
      </trkpt>
      <trkpt lat="47.90687" lon="6.96178">
        <ele>706.9</ele>
        <time>2021-04-22T14:42:55.000Z</time>
      </trkpt>
      <trkpt lat="47.90699" lon="6.96181">
        <ele>704.3</ele>
        <time>2021-04-22T14:43:01.000Z</time>
      </trkpt>
      <trkpt lat="47.90709" lon="6.96182">
        <ele>702.7</ele>
        <time>2021-04-22T14:43:11.000Z</time>
      </trkpt>
      <trkpt lat="47.90718" lon="6.9618">
        <ele>702.3</ele>
        <time>2021-04-22T14:43:21.000Z</time>
      </trkpt>
      <trkpt lat="47.90719" lon="6.96196">
        <ele>697</ele>
        <time>2021-04-22T14:44:01.000Z</time>
      </trkpt>
      <trkpt lat="47.90711" lon="6.96203">
        <ele>695.5</ele>
        <time>2021-04-22T14:44:09.000Z</time>
      </trkpt>
      <trkpt lat="47.90703" lon="6.9621">
        <ele>694</ele>
        <time>2021-04-22T14:44:17.000Z</time>
      </trkpt>
      <trkpt lat="47.90695" lon="6.9622">
        <ele>691.6</ele>
        <time>2021-04-22T14:44:26.000Z</time>
      </trkpt>
      <trkpt lat="47.90689" lon="6.9623">
        <ele>688.6</ele>
        <time>2021-04-22T14:44:33.000Z</time>
      </trkpt>
      <trkpt lat="47.90683" lon="6.96241">
        <ele>685.7</ele>
        <time>2021-04-22T14:44:42.000Z</time>
      </trkpt>
      <trkpt lat="47.90675" lon="6.96254">
        <ele>682</ele>
        <time>2021-04-22T14:44:54.000Z</time>
      </trkpt>
      <trkpt lat="47.90669" lon="6.96265">
        <ele>679.2</ele>
        <time>2021-04-22T14:45:01.000Z</time>
      </trkpt>
      <trkpt lat="47.90664" lon="6.96277">
        <ele>676.5</ele>
        <time>2021-04-22T14:45:10.000Z</time>
      </trkpt>
      <trkpt lat="47.90659" lon="6.96289">
        <ele>673.5</ele>
        <time>2021-04-22T14:45:19.000Z</time>
      </trkpt>
      <trkpt lat="47.90652" lon="6.96299">
        <ele>672</ele>
        <time>2021-04-22T14:45:29.000Z</time>
      </trkpt>
      <trkpt lat="47.90645" lon="6.96309">
        <ele>670.3</ele>
        <time>2021-04-22T14:45:39.000Z</time>
      </trkpt>
      <trkpt lat="47.90635" lon="6.96323">
        <ele>668</ele>
        <time>2021-04-22T14:45:54.000Z</time>
      </trkpt>
      <trkpt lat="47.90627" lon="6.96336">
        <ele>666</ele>
        <time>2021-04-22T14:46:08.000Z</time>
      </trkpt>
      <trkpt lat="47.90619" lon="6.9635">
        <ele>664.9</ele>
        <time>2021-04-22T14:46:23.000Z</time>
      </trkpt>
      <trkpt lat="47.9061" lon="6.9636">
        <ele>664.3</ele>
        <time>2021-04-22T14:46:39.000Z</time>
      </trkpt>
      <trkpt lat="47.90606" lon="6.96378">
        <ele>661.3</ele>
        <time>2021-04-22T14:46:52.000Z</time>
      </trkpt>
      <trkpt lat="47.90601" lon="6.96396">
        <ele>658.4</ele>
        <time>2021-04-22T14:47:07.000Z</time>
      </trkpt>
      <trkpt lat="47.90594" lon="6.96411">
        <ele>656.3</ele>
        <time>2021-04-22T14:47:19.000Z</time>
      </trkpt>
      <trkpt lat="47.90587" lon="6.96428">
        <ele>653.7</ele>
        <time>2021-04-22T14:47:29.000Z</time>
      </trkpt>
      <trkpt lat="47.90577" lon="6.96443">
        <ele>652</ele>
        <time>2021-04-22T14:47:40.000Z</time>
      </trkpt>
      <trkpt lat="47.90568" lon="6.96455">
        <ele>650.9</ele>
        <time>2021-04-22T14:47:51.000Z</time>
      </trkpt>
      <trkpt lat="47.90559" lon="6.9647">
        <ele>648.7</ele>
        <time>2021-04-22T14:48:02.000Z</time>
      </trkpt>
      <trkpt lat="47.9055" lon="6.96483">
        <ele>646.8</ele>
        <time>2021-04-22T14:48:13.000Z</time>
      </trkpt>
      <trkpt lat="47.90544" lon="6.96501">
        <ele>643</ele>
        <time>2021-04-22T14:48:22.000Z</time>
      </trkpt>
      <trkpt lat="47.90541" lon="6.96516">
        <ele>640.2</ele>
        <time>2021-04-22T14:48:29.000Z</time>
      </trkpt>
      <trkpt lat="47.90537" lon="6.96529">
        <ele>637.8</ele>
        <time>2021-04-22T14:48:36.000Z</time>
      </trkpt>
      <trkpt lat="47.90531" lon="6.96543">
        <ele>635.8</ele>
        <time>2021-04-22T14:48:51.000Z</time>
      </trkpt>
      <trkpt lat="47.90523" lon="6.96554">
        <ele>634.6</ele>
        <time>2021-04-22T14:49:05.000Z</time>
      </trkpt>
      <trkpt lat="47.90516" lon="6.96569">
        <ele>632.4</ele>
        <time>2021-04-22T14:49:13.000Z</time>
      </trkpt>
      <trkpt lat="47.90508" lon="6.96589">
        <ele>629.7</ele>
        <time>2021-04-22T14:49:19.000Z</time>
      </trkpt>
      <trkpt lat="47.90501" lon="6.96612">
        <ele>627.1</ele>
        <time>2021-04-22T14:49:33.000Z</time>
      </trkpt>
      <trkpt lat="47.90494" lon="6.9663">
        <ele>624.4</ele>
        <time>2021-04-22T14:49:48.000Z</time>
      </trkpt>
      <trkpt lat="47.90485" lon="6.96644">
        <ele>622.7</ele>
        <time>2021-04-22T14:50:01.000Z</time>
      </trkpt>
      <trkpt lat="47.90468" lon="6.9665">
        <ele>622.7</ele>
        <time>2021-04-22T14:50:17.000Z</time>
      </trkpt>
      <trkpt lat="47.90453" lon="6.96659">
        <ele>622</ele>
        <time>2021-04-22T14:50:30.000Z</time>
      </trkpt>
      <trkpt lat="47.90441" lon="6.9666">
        <ele>622.5</ele>
        <time>2021-04-22T14:50:41.000Z</time>
      </trkpt>
      <trkpt lat="47.90429" lon="6.96663">
        <ele>622.8</ele>
        <time>2021-04-22T14:50:51.000Z</time>
      </trkpt>
      <trkpt lat="47.90417" lon="6.96668">
        <ele>622.7</ele>
        <time>2021-04-22T14:51:01.000Z</time>
      </trkpt>
      <trkpt lat="47.90403" lon="6.96674">
        <ele>620.6</ele>
        <time>2021-04-22T14:51:11.000Z</time>
      </trkpt>
      <trkpt lat="47.90391" lon="6.96681">
        <ele>618.6</ele>
        <time>2021-04-22T14:51:22.000Z</time>
      </trkpt>
      <trkpt lat="47.90378" lon="6.96684">
        <ele>617.2</ele>
        <time>2021-04-22T14:51:32.000Z</time>
      </trkpt>
      <trkpt lat="47.90364" lon="6.96689">
        <ele>615.7</ele>
        <time>2021-04-22T14:51:42.000Z</time>
      </trkpt>
      <trkpt lat="47.90351" lon="6.96692">
        <ele>614.4</ele>
        <time>2021-04-22T14:51:53.000Z</time>
      </trkpt>
      <trkpt lat="47.90341" lon="6.96698">
        <ele>613.1</ele>
        <time>2021-04-22T14:52:05.000Z</time>
      </trkpt>
      <trkpt lat="47.90342" lon="6.96713">
        <ele>611.4</ele>
        <time>2021-04-22T14:52:20.000Z</time>
      </trkpt>
      <trkpt lat="47.90339" lon="6.96731">
        <ele>609.3</ele>
        <time>2021-04-22T14:52:35.000Z</time>
      </trkpt>
      <trkpt lat="47.90332" lon="6.96747">
        <ele>607.1</ele>
        <time>2021-04-22T14:52:48.000Z</time>
      </trkpt>
      <trkpt lat="47.90324" lon="6.96762">
        <ele>604.2</ele>
        <time>2021-04-22T14:52:59.000Z</time>
      </trkpt>
      <trkpt lat="47.90314" lon="6.96773">
        <ele>602</ele>
        <time>2021-04-22T14:53:13.000Z</time>
      </trkpt>
      <trkpt lat="47.90304" lon="6.96785">
        <ele>600.3</ele>
        <time>2021-04-22T14:53:23.000Z</time>
      </trkpt>
      <trkpt lat="47.90294" lon="6.96795">
        <ele>599.4</ele>
        <time>2021-04-22T14:53:35.000Z</time>
      </trkpt>
      <trkpt lat="47.90285" lon="6.96809">
        <ele>598.8</ele>
        <time>2021-04-22T14:53:47.000Z</time>
      </trkpt>
      <trkpt lat="47.90275" lon="6.96823">
        <ele>598.9</ele>
        <time>2021-04-22T14:53:58.000Z</time>
      </trkpt>
      <trkpt lat="47.90268" lon="6.96842">
        <ele>598.2</ele>
        <time>2021-04-22T14:54:10.000Z</time>
      </trkpt>
      <trkpt lat="47.90261" lon="6.9686">
        <ele>596.7</ele>
        <time>2021-04-22T14:54:21.000Z</time>
      </trkpt>
      <trkpt lat="47.90253" lon="6.96877">
        <ele>596.2</ele>
        <time>2021-04-22T14:54:38.000Z</time>
      </trkpt>
      <trkpt lat="47.90246" lon="6.9689">
        <ele>594.8</ele>
        <time>2021-04-22T14:54:50.000Z</time>
      </trkpt>
      <trkpt lat="47.90237" lon="6.96901">
        <ele>592.5</ele>
        <time>2021-04-22T14:55:04.000Z</time>
      </trkpt>
      <trkpt lat="47.90228" lon="6.96914">
        <ele>590.5</ele>
        <time>2021-04-22T14:55:14.000Z</time>
      </trkpt>
      <trkpt lat="47.9022" lon="6.96929">
        <ele>586.8</ele>
        <time>2021-04-22T14:55:23.000Z</time>
      </trkpt>
      <trkpt lat="47.90211" lon="6.96945">
        <ele>583.1</ele>
        <time>2021-04-22T14:55:33.000Z</time>
      </trkpt>
      <trkpt lat="47.90202" lon="6.96959">
        <ele>580.7</ele>
        <time>2021-04-22T14:55:43.000Z</time>
      </trkpt>
      <trkpt lat="47.90193" lon="6.96977">
        <ele>578.5</ele>
        <time>2021-04-22T14:55:53.000Z</time>
      </trkpt>
      <trkpt lat="47.90185" lon="6.96988">
        <ele>577.8</ele>
        <time>2021-04-22T14:56:14.000Z</time>
      </trkpt>
      <trkpt lat="47.90177" lon="6.97003">
        <ele>577</ele>
        <time>2021-04-22T14:56:25.000Z</time>
      </trkpt>
      <trkpt lat="47.90168" lon="6.97016">
        <ele>575.9</ele>
        <time>2021-04-22T14:56:36.000Z</time>
      </trkpt>
      <trkpt lat="47.90157" lon="6.97033">
        <ele>570.5</ele>
        <time>2021-04-22T14:56:47.000Z</time>
      </trkpt>
      <trkpt lat="47.90149" lon="6.97055">
        <ele>565</ele>
        <time>2021-04-22T14:56:56.000Z</time>
      </trkpt>
      <trkpt lat="47.9014" lon="6.97053">
        <ele>563.2</ele>
        <time>2021-04-22T14:58:29.000Z</time>
      </trkpt>
      <trkpt lat="47.90129" lon="6.9706">
        <ele>559.9</ele>
        <time>2021-04-22T14:58:41.000Z</time>
      </trkpt>
      <trkpt lat="47.90119" lon="6.97064">
        <ele>557.2</ele>
        <time>2021-04-22T14:59:01.000Z</time>
      </trkpt>
      <trkpt lat="47.90111" lon="6.97052">
        <ele>556.6</ele>
        <time>2021-04-22T14:59:20.000Z</time>
      </trkpt>
      <trkpt lat="47.90101" lon="6.97061">
        <ele>553.6</ele>
        <time>2021-04-22T14:59:34.000Z</time>
      </trkpt>
      <trkpt lat="47.90092" lon="6.97055">
        <ele>552</ele>
        <time>2021-04-22T15:00:01.000Z</time>
      </trkpt>
      <trkpt lat="47.90088" lon="6.97037">
        <ele>551.8</ele>
        <time>2021-04-22T15:00:14.000Z</time>
      </trkpt>
      <trkpt lat="47.90084" lon="6.97018">
        <ele>551.5</ele>
        <time>2021-04-22T15:00:26.000Z</time>
      </trkpt>
      <trkpt lat="47.90077" lon="6.97007">
        <ele>549.5</ele>
        <time>2021-04-22T15:00:46.000Z</time>
      </trkpt>
      <trkpt lat="47.90067" lon="6.97012">
        <ele>546.2</ele>
        <time>2021-04-22T15:00:53.000Z</time>
      </trkpt>
      <trkpt lat="47.90059" lon="6.97022">
        <ele>542.9</ele>
        <time>2021-04-22T15:01:03.000Z</time>
      </trkpt>
      <trkpt lat="47.90043" lon="6.97024">
        <ele>537.2</ele>
        <time>2021-04-22T15:01:19.000Z</time>
      </trkpt>
      <trkpt lat="47.90032" lon="6.97016">
        <ele>534.1</ele>
        <time>2021-04-22T15:01:33.000Z</time>
      </trkpt>
      <trkpt lat="47.90022" lon="6.97015">
        <ele>530.8</ele>
        <time>2021-04-22T15:01:40.000Z</time>
      </trkpt>
      <trkpt lat="47.90013" lon="6.97009">
        <ele>528.2</ele>
        <time>2021-04-22T15:01:49.000Z</time>
      </trkpt>
      <trkpt lat="47.90004" lon="6.97">
        <ele>526.4</ele>
        <time>2021-04-22T15:01:56.000Z</time>
      </trkpt>
      <trkpt lat="47.89993" lon="6.96989">
        <ele>524.5</ele>
        <time>2021-04-22T15:02:08.000Z</time>
      </trkpt>
      <trkpt lat="47.89995" lon="6.97003">
        <ele>523.9</ele>
        <time>2021-04-22T15:02:20.000Z</time>
      </trkpt>
      <trkpt lat="47.89999" lon="6.97009">
        <ele>523.7</ele>
        <time>2021-04-22T15:02:24.000Z</time>
      </trkpt>
    </trkseg>
  </trk>
</gpx>